﻿<?xml version="1.0" encoding="UTF-8" standalone="no" ?>
<gpx xmlns="http://www.topografix.com/GPX/1/1" creator="CompeGPS" version="1.1" xmlns:xsi="http://www.w3.org/2001/XMLSchema-instance" xsi:schemaLocation="http://www.topografix.com/GPX/1/1 http://www.topografix.com/GPX/1/1/gpx.xsd http://www.garmin.com/xmlschemas/GpxExtensions/v3 http://www.garmin.com/xmlschemas/GpxExtensionsv3.xsd http://www.garmin.com/xmlschemas/TrackPointExtension/v1 http://www.garmin.com/xmlschemas/TrackPointExtensionv1.xsd" xmlns:gpxtpx="http://www.garmin.com/xmlschemas/TrackPointExtension/v1">
  <metadata>
    <link href="http://www.compegps.com">
      <text>CompeGPS TEAM, SL</text>
    </link>
    <time>2020-11-22T19:09:32Z</time>
    <bounds maxlat="44.791159" maxlon="6.538639" minlat="44.780902" minlon="6.517299"/>
  </metadata>
  <trk>
    <name>Rando_367</name>
    <trkseg>
      <trkpt lat="44.790486" lon="6.518883">
        <ele>1332.1</ele>
        <time>2020-07-11T09:20:59Z</time>
      </trkpt>
      <trkpt lat="44.790512" lon="6.518827">
        <ele>1329.7</ele>
        <time>2020-07-11T09:22:32Z</time>
      </trkpt>
      <trkpt lat="44.790560" lon="6.518727">
        <ele>1330.6</ele>
        <time>2020-07-11T09:22:43Z</time>
      </trkpt>
      <trkpt lat="44.790623" lon="6.518645">
        <ele>1330.3</ele>
        <time>2020-07-11T09:23:13Z</time>
      </trkpt>
      <trkpt lat="44.790657" lon="6.518530">
        <ele>1331.2</ele>
        <time>2020-07-11T09:23:40Z</time>
      </trkpt>
      <trkpt lat="44.790722" lon="6.518463">
        <ele>1331.7</ele>
        <time>2020-07-11T09:23:55Z</time>
      </trkpt>
      <trkpt lat="44.790772" lon="6.518372">
        <ele>1332.3</ele>
        <time>2020-07-11T09:24:07Z</time>
      </trkpt>
      <trkpt lat="44.790840" lon="6.518290">
        <ele>1333.2</ele>
        <time>2020-07-11T09:24:15Z</time>
      </trkpt>
      <trkpt lat="44.790890" lon="6.518190">
        <ele>1334.1</ele>
        <time>2020-07-11T09:24:28Z</time>
      </trkpt>
      <trkpt lat="44.790955" lon="6.518118">
        <ele>1334.4</ele>
        <time>2020-07-11T09:24:40Z</time>
      </trkpt>
      <trkpt lat="44.791015" lon="6.518027">
        <ele>1335.5</ele>
        <time>2020-07-11T09:24:52Z</time>
      </trkpt>
      <trkpt lat="44.791088" lon="6.517955">
        <ele>1335.3</ele>
        <time>2020-07-11T09:25:02Z</time>
      </trkpt>
      <trkpt lat="44.791158" lon="6.517887">
        <ele>1336.3</ele>
        <time>2020-07-11T09:25:14Z</time>
      </trkpt>
      <trkpt lat="44.791075" lon="6.517855">
        <ele>1339.7</ele>
        <time>2020-07-11T09:25:30Z</time>
      </trkpt>
      <trkpt lat="44.791007" lon="6.517927">
        <ele>1342.8</ele>
        <time>2020-07-11T09:25:47Z</time>
      </trkpt>
      <trkpt lat="44.790948" lon="6.518018">
        <ele>1344.7</ele>
        <time>2020-07-11T09:26:01Z</time>
      </trkpt>
      <trkpt lat="44.790875" lon="6.518082">
        <ele>1345.6</ele>
        <time>2020-07-11T09:26:13Z</time>
      </trkpt>
      <trkpt lat="44.790805" lon="6.518147">
        <ele>1345.9</ele>
        <time>2020-07-11T09:26:21Z</time>
      </trkpt>
      <trkpt lat="44.790733" lon="6.518207">
        <ele>1346.2</ele>
        <time>2020-07-11T09:26:31Z</time>
      </trkpt>
      <trkpt lat="44.790652" lon="6.518257">
        <ele>1347.2</ele>
        <time>2020-07-11T09:26:41Z</time>
      </trkpt>
      <trkpt lat="44.790578" lon="6.518322">
        <ele>1347.3</ele>
        <time>2020-07-11T09:26:50Z</time>
      </trkpt>
      <trkpt lat="44.790513" lon="6.518395">
        <ele>1347.0</ele>
        <time>2020-07-11T09:27:01Z</time>
      </trkpt>
      <trkpt lat="44.790440" lon="6.518465">
        <ele>1347.4</ele>
        <time>2020-07-11T09:27:12Z</time>
      </trkpt>
      <trkpt lat="44.790380" lon="6.518557">
        <ele>1347.8</ele>
        <time>2020-07-11T09:27:23Z</time>
      </trkpt>
      <trkpt lat="44.790323" lon="6.518648">
        <ele>1349.2</ele>
        <time>2020-07-11T09:27:35Z</time>
      </trkpt>
      <trkpt lat="44.790252" lon="6.518710">
        <ele>1349.1</ele>
        <time>2020-07-11T09:27:43Z</time>
      </trkpt>
      <trkpt lat="44.790177" lon="6.518772">
        <ele>1349.8</ele>
        <time>2020-07-11T09:27:53Z</time>
      </trkpt>
      <trkpt lat="44.790110" lon="6.518853">
        <ele>1350.4</ele>
        <time>2020-07-11T09:28:04Z</time>
      </trkpt>
      <trkpt lat="44.790077" lon="6.518967">
        <ele>1351.7</ele>
        <time>2020-07-11T09:28:14Z</time>
      </trkpt>
      <trkpt lat="44.790022" lon="6.519058">
        <ele>1353.3</ele>
        <time>2020-07-11T09:28:25Z</time>
      </trkpt>
      <trkpt lat="44.789958" lon="6.519137">
        <ele>1354.6</ele>
        <time>2020-07-11T09:28:53Z</time>
      </trkpt>
      <trkpt lat="44.789888" lon="6.519212">
        <ele>1353.9</ele>
        <time>2020-07-11T09:29:05Z</time>
      </trkpt>
      <trkpt lat="44.789805" lon="6.519245">
        <ele>1355.5</ele>
        <time>2020-07-11T09:30:37Z</time>
      </trkpt>
      <trkpt lat="44.789720" lon="6.519258">
        <ele>1357.0</ele>
        <time>2020-07-11T09:30:45Z</time>
      </trkpt>
      <trkpt lat="44.789635" lon="6.519258">
        <ele>1357.5</ele>
        <time>2020-07-11T09:30:54Z</time>
      </trkpt>
      <trkpt lat="44.789547" lon="6.519270">
        <ele>1358.0</ele>
        <time>2020-07-11T09:31:04Z</time>
      </trkpt>
      <trkpt lat="44.789463" lon="6.519310">
        <ele>1359.0</ele>
        <time>2020-07-11T09:31:20Z</time>
      </trkpt>
      <trkpt lat="44.789377" lon="6.519305">
        <ele>1360.1</ele>
        <time>2020-07-11T09:31:32Z</time>
      </trkpt>
      <trkpt lat="44.789290" lon="6.519308">
        <ele>1361.0</ele>
        <time>2020-07-11T09:31:41Z</time>
      </trkpt>
      <trkpt lat="44.789203" lon="6.519315">
        <ele>1362.6</ele>
        <time>2020-07-11T09:31:50Z</time>
      </trkpt>
      <trkpt lat="44.789117" lon="6.519333">
        <ele>1366.0</ele>
        <time>2020-07-11T09:32:00Z</time>
      </trkpt>
      <trkpt lat="44.789028" lon="6.519342">
        <ele>1367.5</ele>
        <time>2020-07-11T09:32:07Z</time>
      </trkpt>
      <trkpt lat="44.788948" lon="6.519362">
        <ele>1369.8</ele>
        <time>2020-07-11T09:32:14Z</time>
      </trkpt>
      <trkpt lat="44.788872" lon="6.519373">
        <ele>1370.5</ele>
        <time>2020-07-11T09:32:19Z</time>
      </trkpt>
      <trkpt lat="44.788787" lon="6.519370">
        <ele>1372.5</ele>
        <time>2020-07-11T09:32:25Z</time>
      </trkpt>
      <trkpt lat="44.788700" lon="6.519372">
        <ele>1373.6</ele>
        <time>2020-07-11T09:32:30Z</time>
      </trkpt>
      <trkpt lat="44.788618" lon="6.519370">
        <ele>1375.9</ele>
        <time>2020-07-11T09:32:39Z</time>
      </trkpt>
      <trkpt lat="44.788533" lon="6.519333">
        <ele>1377.6</ele>
        <time>2020-07-11T09:32:47Z</time>
      </trkpt>
      <trkpt lat="44.788468" lon="6.519263">
        <ele>1379.7</ele>
        <time>2020-07-11T09:32:56Z</time>
      </trkpt>
      <trkpt lat="44.788385" lon="6.519280">
        <ele>1381.8</ele>
        <time>2020-07-11T09:33:04Z</time>
      </trkpt>
      <trkpt lat="44.788470" lon="6.519277">
        <ele>1379.8</ele>
        <time>2020-07-11T09:33:22Z</time>
      </trkpt>
      <trkpt lat="44.788492" lon="6.519397">
        <ele>1377.8</ele>
        <time>2020-07-11T09:34:05Z</time>
      </trkpt>
      <trkpt lat="44.788532" lon="6.519503">
        <ele>1376.6</ele>
        <time>2020-07-11T09:34:12Z</time>
      </trkpt>
      <trkpt lat="44.788572" lon="6.519607">
        <ele>1374.8</ele>
        <time>2020-07-11T09:34:21Z</time>
      </trkpt>
      <trkpt lat="44.788620" lon="6.519710">
        <ele>1370.7</ele>
        <time>2020-07-11T09:34:32Z</time>
      </trkpt>
      <trkpt lat="44.788657" lon="6.519822">
        <ele>1367.4</ele>
        <time>2020-07-11T09:34:47Z</time>
      </trkpt>
      <trkpt lat="44.788670" lon="6.519945">
        <ele>1365.5</ele>
        <time>2020-07-11T09:34:57Z</time>
      </trkpt>
      <trkpt lat="44.788690" lon="6.520058">
        <ele>1363.9</ele>
        <time>2020-07-11T09:35:07Z</time>
      </trkpt>
      <trkpt lat="44.788728" lon="6.520152">
        <ele>1362.7</ele>
        <time>2020-07-11T09:35:17Z</time>
      </trkpt>
      <trkpt lat="44.788740" lon="6.520277">
        <ele>1362.1</ele>
        <time>2020-07-11T09:35:28Z</time>
      </trkpt>
      <trkpt lat="44.788678" lon="6.520368">
        <ele>1361.9</ele>
        <time>2020-07-11T09:35:39Z</time>
      </trkpt>
      <trkpt lat="44.788640" lon="6.520475">
        <ele>1362.1</ele>
        <time>2020-07-11T09:35:49Z</time>
      </trkpt>
      <trkpt lat="44.788632" lon="6.520595">
        <ele>1369.4</ele>
        <time>2020-07-11T09:36:01Z</time>
      </trkpt>
      <trkpt lat="44.788605" lon="6.520713">
        <ele>1376.4</ele>
        <time>2020-07-11T09:36:15Z</time>
      </trkpt>
      <trkpt lat="44.788543" lon="6.520787">
        <ele>1380.1</ele>
        <time>2020-07-11T09:36:25Z</time>
      </trkpt>
      <trkpt lat="44.788475" lon="6.520842">
        <ele>1382.5</ele>
        <time>2020-07-11T09:36:32Z</time>
      </trkpt>
      <trkpt lat="44.788397" lon="6.520900">
        <ele>1385.5</ele>
        <time>2020-07-11T09:36:44Z</time>
      </trkpt>
      <trkpt lat="44.788340" lon="6.520995">
        <ele>1390.0</ele>
        <time>2020-07-11T09:36:57Z</time>
      </trkpt>
      <trkpt lat="44.788272" lon="6.521063">
        <ele>1394.4</ele>
        <time>2020-07-11T09:37:08Z</time>
      </trkpt>
      <trkpt lat="44.788195" lon="6.521120">
        <ele>1398.2</ele>
        <time>2020-07-11T09:37:22Z</time>
      </trkpt>
      <trkpt lat="44.788185" lon="6.521232">
        <ele>1400.0</ele>
        <time>2020-07-11T09:37:33Z</time>
      </trkpt>
      <trkpt lat="44.788102" lon="6.521197">
        <ele>1394.1</ele>
        <time>2020-07-11T09:38:17Z</time>
      </trkpt>
      <trkpt lat="44.788070" lon="6.521083">
        <ele>1390.7</ele>
        <time>2020-07-11T09:38:29Z</time>
      </trkpt>
      <trkpt lat="44.788115" lon="6.520978">
        <ele>1387.8</ele>
        <time>2020-07-11T09:38:41Z</time>
      </trkpt>
      <trkpt lat="44.788158" lon="6.520870">
        <ele>1387.2</ele>
        <time>2020-07-11T09:38:50Z</time>
      </trkpt>
      <trkpt lat="44.788213" lon="6.520782">
        <ele>1386.9</ele>
        <time>2020-07-11T09:39:00Z</time>
      </trkpt>
      <trkpt lat="44.788207" lon="6.520663">
        <ele>1387.0</ele>
        <time>2020-07-11T09:39:15Z</time>
      </trkpt>
      <trkpt lat="44.788252" lon="6.520555">
        <ele>1386.4</ele>
        <time>2020-07-11T09:39:34Z</time>
      </trkpt>
      <trkpt lat="44.788193" lon="6.520643">
        <ele>1390.6</ele>
        <time>2020-07-11T09:40:03Z</time>
      </trkpt>
      <trkpt lat="44.788155" lon="6.520755">
        <ele>1394.2</ele>
        <time>2020-07-11T09:40:20Z</time>
      </trkpt>
      <trkpt lat="44.788073" lon="6.520798">
        <ele>1396.0</ele>
        <time>2020-07-11T09:40:33Z</time>
      </trkpt>
      <trkpt lat="44.788075" lon="6.520692">
        <ele>1400.2</ele>
        <time>2020-07-11T09:41:11Z</time>
      </trkpt>
      <trkpt lat="44.788125" lon="6.520593">
        <ele>1402.7</ele>
        <time>2020-07-11T09:41:20Z</time>
      </trkpt>
      <trkpt lat="44.788152" lon="6.520477">
        <ele>1404.3</ele>
        <time>2020-07-11T09:41:37Z</time>
      </trkpt>
      <trkpt lat="44.788065" lon="6.520487">
        <ele>1407.8</ele>
        <time>2020-07-11T09:42:09Z</time>
      </trkpt>
      <trkpt lat="44.788005" lon="6.520568">
        <ele>1409.5</ele>
        <time>2020-07-11T09:42:23Z</time>
      </trkpt>
      <trkpt lat="44.788023" lon="6.520448">
        <ele>1412.6</ele>
        <time>2020-07-11T09:42:42Z</time>
      </trkpt>
      <trkpt lat="44.787945" lon="6.520508">
        <ele>1414.8</ele>
        <time>2020-07-11T09:43:04Z</time>
      </trkpt>
      <trkpt lat="44.787863" lon="6.520508">
        <ele>1416.3</ele>
        <time>2020-07-11T09:43:17Z</time>
      </trkpt>
      <trkpt lat="44.787777" lon="6.520493">
        <ele>1418.3</ele>
        <time>2020-07-11T09:43:31Z</time>
      </trkpt>
      <trkpt lat="44.787823" lon="6.520385">
        <ele>1429.5</ele>
        <time>2020-07-11T09:44:14Z</time>
      </trkpt>
      <trkpt lat="44.787892" lon="6.520317">
        <ele>1432.6</ele>
        <time>2020-07-11T09:44:29Z</time>
      </trkpt>
      <trkpt lat="44.787810" lon="6.520275">
        <ele>1435.5</ele>
        <time>2020-07-11T09:44:57Z</time>
      </trkpt>
      <trkpt lat="44.787732" lon="6.520218">
        <ele>1440.2</ele>
        <time>2020-07-11T09:45:42Z</time>
      </trkpt>
      <trkpt lat="44.787645" lon="6.520187">
        <ele>1440.9</ele>
        <time>2020-07-11T09:45:59Z</time>
      </trkpt>
      <trkpt lat="44.787568" lon="6.520150">
        <ele>1442.5</ele>
        <time>2020-07-11T09:46:20Z</time>
      </trkpt>
      <trkpt lat="44.787483" lon="6.520175">
        <ele>1444.1</ele>
        <time>2020-07-11T09:46:42Z</time>
      </trkpt>
      <trkpt lat="44.787442" lon="6.520080">
        <ele>1447.8</ele>
        <time>2020-07-11T09:47:19Z</time>
      </trkpt>
      <trkpt lat="44.787370" lon="6.520090">
        <ele>1448.7</ele>
        <time>2020-07-11T09:47:24Z</time>
      </trkpt>
      <trkpt lat="44.787285" lon="6.520110">
        <ele>1450.0</ele>
        <time>2020-07-11T09:47:31Z</time>
      </trkpt>
      <trkpt lat="44.787210" lon="6.520167">
        <ele>1453.1</ele>
        <time>2020-07-11T09:47:45Z</time>
      </trkpt>
      <trkpt lat="44.787202" lon="6.520283">
        <ele>1456.8</ele>
        <time>2020-07-11T09:48:03Z</time>
      </trkpt>
      <trkpt lat="44.787210" lon="6.520407">
        <ele>1459.9</ele>
        <time>2020-07-11T09:48:18Z</time>
      </trkpt>
      <trkpt lat="44.787188" lon="6.520527">
        <ele>1461.1</ele>
        <time>2020-07-11T09:48:35Z</time>
      </trkpt>
      <trkpt lat="44.787132" lon="6.520618">
        <ele>1462.6</ele>
        <time>2020-07-11T09:48:53Z</time>
      </trkpt>
      <trkpt lat="44.787060" lon="6.520692">
        <ele>1464.8</ele>
        <time>2020-07-11T09:49:07Z</time>
      </trkpt>
      <trkpt lat="44.786988" lon="6.520755">
        <ele>1467.1</ele>
        <time>2020-07-11T09:49:20Z</time>
      </trkpt>
      <trkpt lat="44.786907" lon="6.520785">
        <ele>1470.5</ele>
        <time>2020-07-11T09:49:33Z</time>
      </trkpt>
      <trkpt lat="44.786825" lon="6.520823">
        <ele>1474.2</ele>
        <time>2020-07-11T09:49:48Z</time>
      </trkpt>
      <trkpt lat="44.786765" lon="6.520915">
        <ele>1478.0</ele>
        <time>2020-07-11T09:50:07Z</time>
      </trkpt>
      <trkpt lat="44.786722" lon="6.520808">
        <ele>1482.2</ele>
        <time>2020-07-11T09:50:24Z</time>
      </trkpt>
      <trkpt lat="44.786645" lon="6.520743">
        <ele>1487.6</ele>
        <time>2020-07-11T09:50:48Z</time>
      </trkpt>
      <trkpt lat="44.786562" lon="6.520743">
        <ele>1490.6</ele>
        <time>2020-07-11T09:51:05Z</time>
      </trkpt>
      <trkpt lat="44.786478" lon="6.520725">
        <ele>1492.8</ele>
        <time>2020-07-11T09:51:16Z</time>
      </trkpt>
      <trkpt lat="44.786395" lon="6.520693">
        <ele>1495.1</ele>
        <time>2020-07-11T09:51:29Z</time>
      </trkpt>
      <trkpt lat="44.786310" lon="6.520657">
        <ele>1497.5</ele>
        <time>2020-07-11T09:51:49Z</time>
      </trkpt>
      <trkpt lat="44.786353" lon="6.520547">
        <ele>1498.9</ele>
        <time>2020-07-11T09:52:07Z</time>
      </trkpt>
      <trkpt lat="44.786423" lon="6.520470">
        <ele>1498.1</ele>
        <time>2020-07-11T09:52:21Z</time>
      </trkpt>
      <trkpt lat="44.786468" lon="6.520362">
        <ele>1497.2</ele>
        <time>2020-07-11T09:52:36Z</time>
      </trkpt>
      <trkpt lat="44.786382" lon="6.520373">
        <ele>1498.8</ele>
        <time>2020-07-11T09:53:18Z</time>
      </trkpt>
      <trkpt lat="44.786295" lon="6.520367">
        <ele>1499.5</ele>
        <time>2020-07-11T09:53:32Z</time>
      </trkpt>
      <trkpt lat="44.786213" lon="6.520412">
        <ele>1500.8</ele>
        <time>2020-07-11T09:53:47Z</time>
      </trkpt>
      <trkpt lat="44.786132" lon="6.520435">
        <ele>1502.7</ele>
        <time>2020-07-11T09:54:00Z</time>
      </trkpt>
      <trkpt lat="44.786047" lon="6.520425">
        <ele>1504.7</ele>
        <time>2020-07-11T09:54:12Z</time>
      </trkpt>
      <trkpt lat="44.786088" lon="6.520317">
        <ele>1508.1</ele>
        <time>2020-07-11T09:54:34Z</time>
      </trkpt>
      <trkpt lat="44.786163" lon="6.520258">
        <ele>1510.4</ele>
        <time>2020-07-11T09:54:51Z</time>
      </trkpt>
      <trkpt lat="44.786238" lon="6.520202">
        <ele>1512.6</ele>
        <time>2020-07-11T09:55:05Z</time>
      </trkpt>
      <trkpt lat="44.786310" lon="6.520128">
        <ele>1514.9</ele>
        <time>2020-07-11T09:55:18Z</time>
      </trkpt>
      <trkpt lat="44.786350" lon="6.520022">
        <ele>1515.9</ele>
        <time>2020-07-11T09:55:33Z</time>
      </trkpt>
      <trkpt lat="44.786387" lon="6.519912">
        <ele>1517.9</ele>
        <time>2020-07-11T09:55:49Z</time>
      </trkpt>
      <trkpt lat="44.786395" lon="6.519788">
        <ele>1520.8</ele>
        <time>2020-07-11T09:56:05Z</time>
      </trkpt>
      <trkpt lat="44.786427" lon="6.519675">
        <ele>1523.5</ele>
        <time>2020-07-11T09:56:24Z</time>
      </trkpt>
      <trkpt lat="44.786345" lon="6.519630">
        <ele>1526.6</ele>
        <time>2020-07-11T09:56:36Z</time>
      </trkpt>
      <trkpt lat="44.786278" lon="6.519708">
        <ele>1531.0</ele>
        <time>2020-07-11T09:56:57Z</time>
      </trkpt>
      <trkpt lat="44.786262" lon="6.519827">
        <ele>1533.3</ele>
        <time>2020-07-11T09:57:14Z</time>
      </trkpt>
      <trkpt lat="44.786185" lon="6.519775">
        <ele>1535.3</ele>
        <time>2020-07-11T09:57:39Z</time>
      </trkpt>
      <trkpt lat="44.786157" lon="6.519888">
        <ele>1538.2</ele>
        <time>2020-07-11T09:57:56Z</time>
      </trkpt>
      <trkpt lat="44.786085" lon="6.519812">
        <ele>1539.5</ele>
        <time>2020-07-11T09:58:12Z</time>
      </trkpt>
      <trkpt lat="44.786015" lon="6.519735">
        <ele>1540.9</ele>
        <time>2020-07-11T09:58:28Z</time>
      </trkpt>
      <trkpt lat="44.785932" lon="6.519705">
        <ele>1542.8</ele>
        <time>2020-07-11T09:58:45Z</time>
      </trkpt>
      <trkpt lat="44.785848" lon="6.519740">
        <ele>1545.5</ele>
        <time>2020-07-11T09:59:13Z</time>
      </trkpt>
      <trkpt lat="44.785763" lon="6.519705">
        <ele>1546.9</ele>
        <time>2020-07-11T09:59:24Z</time>
      </trkpt>
      <trkpt lat="44.785728" lon="6.519597">
        <ele>1548.3</ele>
        <time>2020-07-11T09:59:34Z</time>
      </trkpt>
      <trkpt lat="44.785650" lon="6.519545">
        <ele>1549.3</ele>
        <time>2020-07-11T09:59:46Z</time>
      </trkpt>
      <trkpt lat="44.785592" lon="6.519452">
        <ele>1549.6</ele>
        <time>2020-07-11T10:00:00Z</time>
      </trkpt>
      <trkpt lat="44.785530" lon="6.519533">
        <ele>1550.9</ele>
        <time>2020-07-11T10:00:42Z</time>
      </trkpt>
      <trkpt lat="44.785447" lon="6.519580">
        <ele>1553.1</ele>
        <time>2020-07-11T10:00:59Z</time>
      </trkpt>
      <trkpt lat="44.785380" lon="6.519500">
        <ele>1554.5</ele>
        <time>2020-07-11T10:01:12Z</time>
      </trkpt>
      <trkpt lat="44.785298" lon="6.519470">
        <ele>1555.5</ele>
        <time>2020-07-11T10:01:21Z</time>
      </trkpt>
      <trkpt lat="44.785218" lon="6.519423">
        <ele>1555.8</ele>
        <time>2020-07-11T10:01:27Z</time>
      </trkpt>
      <trkpt lat="44.785172" lon="6.519318">
        <ele>1559.5</ele>
        <time>2020-07-11T10:01:48Z</time>
      </trkpt>
      <trkpt lat="44.785207" lon="6.519205">
        <ele>1562.9</ele>
        <time>2020-07-11T10:02:10Z</time>
      </trkpt>
      <trkpt lat="44.785247" lon="6.519100">
        <ele>1564.7</ele>
        <time>2020-07-11T10:02:22Z</time>
      </trkpt>
      <trkpt lat="44.785200" lon="6.518993">
        <ele>1567.7</ele>
        <time>2020-07-11T10:02:39Z</time>
      </trkpt>
      <trkpt lat="44.785152" lon="6.518887">
        <ele>1570.4</ele>
        <time>2020-07-11T10:02:58Z</time>
      </trkpt>
      <trkpt lat="44.785065" lon="6.518865">
        <ele>1573.9</ele>
        <time>2020-07-11T10:03:23Z</time>
      </trkpt>
      <trkpt lat="44.785000" lon="6.518788">
        <ele>1576.1</ele>
        <time>2020-07-11T10:03:39Z</time>
      </trkpt>
      <trkpt lat="44.784933" lon="6.518707">
        <ele>1579.8</ele>
        <time>2020-07-11T10:03:59Z</time>
      </trkpt>
      <trkpt lat="44.784885" lon="6.518645">
        <ele>1585.8</ele>
        <time>2020-07-11T10:07:09Z</time>
      </trkpt>
      <trkpt lat="44.784825" lon="6.518555">
        <ele>1594.2</ele>
        <time>2020-07-11T10:09:24Z</time>
      </trkpt>
      <trkpt lat="44.784772" lon="6.518458">
        <ele>1593.4</ele>
        <time>2020-07-11T10:09:40Z</time>
      </trkpt>
      <trkpt lat="44.784772" lon="6.518335">
        <ele>1591.7</ele>
        <time>2020-07-11T10:09:55Z</time>
      </trkpt>
      <trkpt lat="44.784735" lon="6.518225">
        <ele>1591.5</ele>
        <time>2020-07-11T10:10:11Z</time>
      </trkpt>
      <trkpt lat="44.784730" lon="6.518108">
        <ele>1591.0</ele>
        <time>2020-07-11T10:10:24Z</time>
      </trkpt>
      <trkpt lat="44.784702" lon="6.517988">
        <ele>1591.5</ele>
        <time>2020-07-11T10:10:42Z</time>
      </trkpt>
      <trkpt lat="44.784618" lon="6.517953">
        <ele>1595.2</ele>
        <time>2020-07-11T10:11:05Z</time>
      </trkpt>
      <trkpt lat="44.784533" lon="6.517980">
        <ele>1599.2</ele>
        <time>2020-07-11T10:11:30Z</time>
      </trkpt>
      <trkpt lat="44.784448" lon="6.517945">
        <ele>1604.7</ele>
        <time>2020-07-11T10:11:51Z</time>
      </trkpt>
      <trkpt lat="44.784472" lon="6.517827">
        <ele>1610.1</ele>
        <time>2020-07-11T10:12:28Z</time>
      </trkpt>
      <trkpt lat="44.784477" lon="6.517703">
        <ele>1612.8</ele>
        <time>2020-07-11T10:12:49Z</time>
      </trkpt>
      <trkpt lat="44.784552" lon="6.517652">
        <ele>1614.6</ele>
        <time>2020-07-11T10:13:08Z</time>
      </trkpt>
      <trkpt lat="44.784513" lon="6.517540">
        <ele>1618.7</ele>
        <time>2020-07-11T10:13:37Z</time>
      </trkpt>
      <trkpt lat="44.784508" lon="6.517415">
        <ele>1625.2</ele>
        <time>2020-07-11T10:14:06Z</time>
      </trkpt>
      <trkpt lat="44.784498" lon="6.517298">
        <ele>1629.8</ele>
        <time>2020-07-11T10:14:30Z</time>
      </trkpt>
      <trkpt lat="44.784422" lon="6.517363">
        <ele>1630.9</ele>
        <time>2020-07-11T10:14:51Z</time>
      </trkpt>
      <trkpt lat="44.784348" lon="6.517425">
        <ele>1631.7</ele>
        <time>2020-07-11T10:15:07Z</time>
      </trkpt>
      <trkpt lat="44.784310" lon="6.517538">
        <ele>1630.4</ele>
        <time>2020-07-11T10:15:52Z</time>
      </trkpt>
      <trkpt lat="44.784260" lon="6.517637">
        <ele>1628.2</ele>
        <time>2020-07-11T10:16:06Z</time>
      </trkpt>
      <trkpt lat="44.784193" lon="6.517708">
        <ele>1628.2</ele>
        <time>2020-07-11T10:16:14Z</time>
      </trkpt>
      <trkpt lat="44.784130" lon="6.517792">
        <ele>1630.3</ele>
        <time>2020-07-11T10:16:23Z</time>
      </trkpt>
      <trkpt lat="44.784075" lon="6.517725">
        <ele>1633.7</ele>
        <time>2020-07-11T10:18:57Z</time>
      </trkpt>
      <trkpt lat="44.783995" lon="6.517765">
        <ele>1636.1</ele>
        <time>2020-07-11T10:19:10Z</time>
      </trkpt>
      <trkpt lat="44.783912" lon="6.517785">
        <ele>1637.5</ele>
        <time>2020-07-11T10:19:20Z</time>
      </trkpt>
      <trkpt lat="44.783837" lon="6.517847">
        <ele>1638.6</ele>
        <time>2020-07-11T10:19:29Z</time>
      </trkpt>
      <trkpt lat="44.783805" lon="6.517962">
        <ele>1637.9</ele>
        <time>2020-07-11T10:19:40Z</time>
      </trkpt>
      <trkpt lat="44.783833" lon="6.518075">
        <ele>1637.7</ele>
        <time>2020-07-11T10:19:50Z</time>
      </trkpt>
      <trkpt lat="44.783835" lon="6.518197">
        <ele>1636.1</ele>
        <time>2020-07-11T10:20:04Z</time>
      </trkpt>
      <trkpt lat="44.783815" lon="6.518318">
        <ele>1634.7</ele>
        <time>2020-07-11T10:20:14Z</time>
      </trkpt>
      <trkpt lat="44.783802" lon="6.518442">
        <ele>1635.3</ele>
        <time>2020-07-11T10:20:27Z</time>
      </trkpt>
      <trkpt lat="44.783832" lon="6.518553">
        <ele>1635.3</ele>
        <time>2020-07-11T10:20:38Z</time>
      </trkpt>
      <trkpt lat="44.783755" lon="6.518542">
        <ele>1634.7</ele>
        <time>2020-07-11T10:21:22Z</time>
      </trkpt>
      <trkpt lat="44.783702" lon="6.518637">
        <ele>1635.0</ele>
        <time>2020-07-11T10:21:27Z</time>
      </trkpt>
      <trkpt lat="44.783783" lon="6.518667">
        <ele>1635.4</ele>
        <time>2020-07-11T10:21:56Z</time>
      </trkpt>
      <trkpt lat="44.783848" lon="6.518710">
        <ele>1636.0</ele>
        <time>2020-07-11T10:22:09Z</time>
      </trkpt>
      <trkpt lat="44.783905" lon="6.518805">
        <ele>1636.9</ele>
        <time>2020-07-11T10:22:15Z</time>
      </trkpt>
      <trkpt lat="44.783970" lon="6.518877">
        <ele>1637.7</ele>
        <time>2020-07-11T10:22:24Z</time>
      </trkpt>
      <trkpt lat="44.784022" lon="6.518977">
        <ele>1637.9</ele>
        <time>2020-07-11T10:22:33Z</time>
      </trkpt>
      <trkpt lat="44.784077" lon="6.519067">
        <ele>1638.0</ele>
        <time>2020-07-11T10:22:42Z</time>
      </trkpt>
      <trkpt lat="44.784125" lon="6.519163">
        <ele>1638.6</ele>
        <time>2020-07-11T10:22:53Z</time>
      </trkpt>
      <trkpt lat="44.784172" lon="6.519268">
        <ele>1638.7</ele>
        <time>2020-07-11T10:23:03Z</time>
      </trkpt>
      <trkpt lat="44.784225" lon="6.519347">
        <ele>1638.0</ele>
        <time>2020-07-11T10:23:12Z</time>
      </trkpt>
      <trkpt lat="44.784272" lon="6.519453">
        <ele>1637.7</ele>
        <time>2020-07-11T10:23:22Z</time>
      </trkpt>
      <trkpt lat="44.784325" lon="6.519547">
        <ele>1637.4</ele>
        <time>2020-07-11T10:23:30Z</time>
      </trkpt>
      <trkpt lat="44.784370" lon="6.519647">
        <ele>1636.4</ele>
        <time>2020-07-11T10:23:38Z</time>
      </trkpt>
      <trkpt lat="44.784382" lon="6.519755">
        <ele>1634.1</ele>
        <time>2020-07-11T10:23:46Z</time>
      </trkpt>
      <trkpt lat="44.784413" lon="6.519862">
        <ele>1632.2</ele>
        <time>2020-07-11T10:23:54Z</time>
      </trkpt>
      <trkpt lat="44.784438" lon="6.519970">
        <ele>1630.9</ele>
        <time>2020-07-11T10:24:09Z</time>
      </trkpt>
      <trkpt lat="44.784462" lon="6.520082">
        <ele>1629.8</ele>
        <time>2020-07-11T10:24:17Z</time>
      </trkpt>
      <trkpt lat="44.784510" lon="6.520182">
        <ele>1629.4</ele>
        <time>2020-07-11T10:24:24Z</time>
      </trkpt>
      <trkpt lat="44.784567" lon="6.520272">
        <ele>1629.1</ele>
        <time>2020-07-11T10:24:31Z</time>
      </trkpt>
      <trkpt lat="44.784600" lon="6.520378">
        <ele>1628.0</ele>
        <time>2020-07-11T10:24:39Z</time>
      </trkpt>
      <trkpt lat="44.784608" lon="6.520502">
        <ele>1626.4</ele>
        <time>2020-07-11T10:24:49Z</time>
      </trkpt>
      <trkpt lat="44.784637" lon="6.520612">
        <ele>1625.2</ele>
        <time>2020-07-11T10:25:02Z</time>
      </trkpt>
      <trkpt lat="44.784663" lon="6.520723">
        <ele>1623.2</ele>
        <time>2020-07-11T10:25:10Z</time>
      </trkpt>
      <trkpt lat="44.784627" lon="6.520833">
        <ele>1620.8</ele>
        <time>2020-07-11T10:25:21Z</time>
      </trkpt>
      <trkpt lat="44.784628" lon="6.520955">
        <ele>1618.5</ele>
        <time>2020-07-11T10:25:30Z</time>
      </trkpt>
      <trkpt lat="44.784593" lon="6.521058">
        <ele>1617.3</ele>
        <time>2020-07-11T10:25:38Z</time>
      </trkpt>
      <trkpt lat="44.784552" lon="6.521168">
        <ele>1615.9</ele>
        <time>2020-07-11T10:25:46Z</time>
      </trkpt>
      <trkpt lat="44.784535" lon="6.521280">
        <ele>1613.1</ele>
        <time>2020-07-11T10:25:54Z</time>
      </trkpt>
      <trkpt lat="44.784460" lon="6.521340">
        <ele>1612.5</ele>
        <time>2020-07-11T10:25:58Z</time>
      </trkpt>
      <trkpt lat="44.784427" lon="6.521452">
        <ele>1610.8</ele>
        <time>2020-07-11T10:26:07Z</time>
      </trkpt>
      <trkpt lat="44.784420" lon="6.521573">
        <ele>1609.3</ele>
        <time>2020-07-11T10:26:17Z</time>
      </trkpt>
      <trkpt lat="44.784448" lon="6.521680">
        <ele>1607.4</ele>
        <time>2020-07-11T10:26:25Z</time>
      </trkpt>
      <trkpt lat="44.784477" lon="6.521792">
        <ele>1607.1</ele>
        <time>2020-07-11T10:26:31Z</time>
      </trkpt>
      <trkpt lat="44.784473" lon="6.521908">
        <ele>1605.8</ele>
        <time>2020-07-11T10:26:40Z</time>
      </trkpt>
      <trkpt lat="44.784503" lon="6.522022">
        <ele>1605.9</ele>
        <time>2020-07-11T10:26:48Z</time>
      </trkpt>
      <trkpt lat="44.784565" lon="6.522097">
        <ele>1606.8</ele>
        <time>2020-07-11T10:26:55Z</time>
      </trkpt>
      <trkpt lat="44.784623" lon="6.522192">
        <ele>1607.0</ele>
        <time>2020-07-11T10:27:04Z</time>
      </trkpt>
      <trkpt lat="44.784628" lon="6.522315">
        <ele>1607.5</ele>
        <time>2020-07-11T10:27:16Z</time>
      </trkpt>
      <trkpt lat="44.784602" lon="6.522435">
        <ele>1607.6</ele>
        <time>2020-07-11T10:27:25Z</time>
      </trkpt>
      <trkpt lat="44.784602" lon="6.522553">
        <ele>1608.3</ele>
        <time>2020-07-11T10:27:33Z</time>
      </trkpt>
      <trkpt lat="44.784527" lon="6.522620">
        <ele>1609.5</ele>
        <time>2020-07-11T10:27:51Z</time>
      </trkpt>
      <trkpt lat="44.784453" lon="6.522665">
        <ele>1613.3</ele>
        <time>2020-07-11T10:27:59Z</time>
      </trkpt>
      <trkpt lat="44.784370" lon="6.522670">
        <ele>1615.7</ele>
        <time>2020-07-11T10:28:06Z</time>
      </trkpt>
      <trkpt lat="44.784308" lon="6.522762">
        <ele>1618.4</ele>
        <time>2020-07-11T10:28:18Z</time>
      </trkpt>
      <trkpt lat="44.784287" lon="6.522875">
        <ele>1620.5</ele>
        <time>2020-07-11T10:28:27Z</time>
      </trkpt>
      <trkpt lat="44.784270" lon="6.522987">
        <ele>1620.7</ele>
        <time>2020-07-11T10:28:35Z</time>
      </trkpt>
      <trkpt lat="44.784238" lon="6.523095">
        <ele>1620.0</ele>
        <time>2020-07-11T10:28:43Z</time>
      </trkpt>
      <trkpt lat="44.784187" lon="6.523197">
        <ele>1618.1</ele>
        <time>2020-07-11T10:28:53Z</time>
      </trkpt>
      <trkpt lat="44.784139" lon="6.523300">
        <ele>1614.3</ele>
        <time>2020-07-11T10:29:03Z</time>
      </trkpt>
      <trkpt lat="44.784082" lon="6.523395">
        <ele>1613.3</ele>
        <time>2020-07-11T10:29:15Z</time>
      </trkpt>
      <trkpt lat="44.784053" lon="6.523503">
        <ele>1610.3</ele>
        <time>2020-07-11T10:29:26Z</time>
      </trkpt>
      <trkpt lat="44.784005" lon="6.523603">
        <ele>1609.1</ele>
        <time>2020-07-11T10:29:36Z</time>
      </trkpt>
      <trkpt lat="44.784007" lon="6.523720">
        <ele>1608.5</ele>
        <time>2020-07-11T10:29:45Z</time>
      </trkpt>
      <trkpt lat="44.783965" lon="6.523820">
        <ele>1608.6</ele>
        <time>2020-07-11T10:29:54Z</time>
      </trkpt>
      <trkpt lat="44.783922" lon="6.523928">
        <ele>1608.2</ele>
        <time>2020-07-11T10:30:03Z</time>
      </trkpt>
      <trkpt lat="44.783895" lon="6.524043">
        <ele>1611.9</ele>
        <time>2020-07-11T10:30:24Z</time>
      </trkpt>
      <trkpt lat="44.783852" lon="6.524140">
        <ele>1613.9</ele>
        <time>2020-07-11T10:30:32Z</time>
      </trkpt>
      <trkpt lat="44.783835" lon="6.524253">
        <ele>1614.3</ele>
        <time>2020-07-11T10:30:40Z</time>
      </trkpt>
      <trkpt lat="44.783835" lon="6.524367">
        <ele>1615.5</ele>
        <time>2020-07-11T10:30:49Z</time>
      </trkpt>
      <trkpt lat="44.783833" lon="6.524487">
        <ele>1616.5</ele>
        <time>2020-07-11T10:30:56Z</time>
      </trkpt>
      <trkpt lat="44.783833" lon="6.524612">
        <ele>1620.3</ele>
        <time>2020-07-11T10:31:22Z</time>
      </trkpt>
      <trkpt lat="44.783827" lon="6.524727">
        <ele>1622.0</ele>
        <time>2020-07-11T10:31:31Z</time>
      </trkpt>
      <trkpt lat="44.783828" lon="6.524852">
        <ele>1624.1</ele>
        <time>2020-07-11T10:31:37Z</time>
      </trkpt>
      <trkpt lat="44.783812" lon="6.524970">
        <ele>1627.9</ele>
        <time>2020-07-11T10:31:45Z</time>
      </trkpt>
      <trkpt lat="44.783765" lon="6.525065">
        <ele>1629.9</ele>
        <time>2020-07-11T10:31:53Z</time>
      </trkpt>
      <trkpt lat="44.783758" lon="6.525187">
        <ele>1630.6</ele>
        <time>2020-07-11T10:32:01Z</time>
      </trkpt>
      <trkpt lat="44.783717" lon="6.525290">
        <ele>1629.3</ele>
        <time>2020-07-11T10:32:08Z</time>
      </trkpt>
      <trkpt lat="44.783667" lon="6.525383">
        <ele>1629.0</ele>
        <time>2020-07-11T10:32:15Z</time>
      </trkpt>
      <trkpt lat="44.783618" lon="6.525485">
        <ele>1629.2</ele>
        <time>2020-07-11T10:32:23Z</time>
      </trkpt>
      <trkpt lat="44.783583" lon="6.525583">
        <ele>1629.2</ele>
        <time>2020-07-11T10:32:30Z</time>
      </trkpt>
      <trkpt lat="44.783538" lon="6.525673">
        <ele>1628.3</ele>
        <time>2020-07-11T10:32:36Z</time>
      </trkpt>
      <trkpt lat="44.783488" lon="6.525765">
        <ele>1627.7</ele>
        <time>2020-07-11T10:32:43Z</time>
      </trkpt>
      <trkpt lat="44.783450" lon="6.525878">
        <ele>1627.2</ele>
        <time>2020-07-11T10:32:51Z</time>
      </trkpt>
      <trkpt lat="44.783428" lon="6.525985">
        <ele>1627.0</ele>
        <time>2020-07-11T10:32:58Z</time>
      </trkpt>
      <trkpt lat="44.783375" lon="6.526083">
        <ele>1626.1</ele>
        <time>2020-07-11T10:33:05Z</time>
      </trkpt>
      <trkpt lat="44.783335" lon="6.526193">
        <ele>1625.5</ele>
        <time>2020-07-11T10:33:13Z</time>
      </trkpt>
      <trkpt lat="44.783287" lon="6.526297">
        <ele>1624.9</ele>
        <time>2020-07-11T10:33:21Z</time>
      </trkpt>
      <trkpt lat="44.783265" lon="6.526403">
        <ele>1623.8</ele>
        <time>2020-07-11T10:34:14Z</time>
      </trkpt>
      <trkpt lat="44.783208" lon="6.526480">
        <ele>1622.2</ele>
        <time>2020-07-11T10:34:21Z</time>
      </trkpt>
      <trkpt lat="44.783158" lon="6.526563">
        <ele>1620.8</ele>
        <time>2020-07-11T10:34:27Z</time>
      </trkpt>
      <trkpt lat="44.783100" lon="6.526638">
        <ele>1619.0</ele>
        <time>2020-07-11T10:34:33Z</time>
      </trkpt>
      <trkpt lat="44.783040" lon="6.526712">
        <ele>1617.1</ele>
        <time>2020-07-11T10:34:40Z</time>
      </trkpt>
      <trkpt lat="44.782968" lon="6.526767">
        <ele>1615.3</ele>
        <time>2020-07-11T10:34:47Z</time>
      </trkpt>
      <trkpt lat="44.782905" lon="6.526855">
        <ele>1615.0</ele>
        <time>2020-07-11T10:34:55Z</time>
      </trkpt>
      <trkpt lat="44.782850" lon="6.526955">
        <ele>1614.6</ele>
        <time>2020-07-11T10:35:03Z</time>
      </trkpt>
      <trkpt lat="44.782822" lon="6.527070">
        <ele>1613.0</ele>
        <time>2020-07-11T10:35:12Z</time>
      </trkpt>
      <trkpt lat="44.782808" lon="6.527193">
        <ele>1612.3</ele>
        <time>2020-07-11T10:35:20Z</time>
      </trkpt>
      <trkpt lat="44.782800" lon="6.527318">
        <ele>1610.3</ele>
        <time>2020-07-11T10:35:29Z</time>
      </trkpt>
      <trkpt lat="44.782782" lon="6.527433">
        <ele>1608.2</ele>
        <time>2020-07-11T10:35:39Z</time>
      </trkpt>
      <trkpt lat="44.782737" lon="6.527540">
        <ele>1606.9</ele>
        <time>2020-07-11T10:35:47Z</time>
      </trkpt>
      <trkpt lat="44.782688" lon="6.527643">
        <ele>1607.1</ele>
        <time>2020-07-11T10:35:56Z</time>
      </trkpt>
      <trkpt lat="44.782643" lon="6.527743">
        <ele>1605.2</ele>
        <time>2020-07-11T10:36:04Z</time>
      </trkpt>
      <trkpt lat="44.782587" lon="6.527833">
        <ele>1605.0</ele>
        <time>2020-07-11T10:36:16Z</time>
      </trkpt>
      <trkpt lat="44.782552" lon="6.527937">
        <ele>1607.0</ele>
        <time>2020-07-11T10:36:24Z</time>
      </trkpt>
      <trkpt lat="44.782505" lon="6.528037">
        <ele>1608.8</ele>
        <time>2020-07-11T10:36:31Z</time>
      </trkpt>
      <trkpt lat="44.782483" lon="6.528157">
        <ele>1609.5</ele>
        <time>2020-07-11T10:36:39Z</time>
      </trkpt>
      <trkpt lat="44.782445" lon="6.528268">
        <ele>1608.2</ele>
        <time>2020-07-11T10:36:47Z</time>
      </trkpt>
      <trkpt lat="44.782383" lon="6.528358">
        <ele>1608.2</ele>
        <time>2020-07-11T10:37:03Z</time>
      </trkpt>
      <trkpt lat="44.782327" lon="6.528442">
        <ele>1609.3</ele>
        <time>2020-07-11T10:37:10Z</time>
      </trkpt>
      <trkpt lat="44.782288" lon="6.528548">
        <ele>1609.5</ele>
        <time>2020-07-11T10:37:33Z</time>
      </trkpt>
      <trkpt lat="44.782233" lon="6.528642">
        <ele>1608.6</ele>
        <time>2020-07-11T10:37:40Z</time>
      </trkpt>
      <trkpt lat="44.782200" lon="6.528750">
        <ele>1605.9</ele>
        <time>2020-07-11T10:37:48Z</time>
      </trkpt>
      <trkpt lat="44.782133" lon="6.528828">
        <ele>1603.7</ele>
        <time>2020-07-11T10:37:56Z</time>
      </trkpt>
      <trkpt lat="44.782072" lon="6.528895">
        <ele>1601.4</ele>
        <time>2020-07-11T10:38:03Z</time>
      </trkpt>
      <trkpt lat="44.782030" lon="6.528993">
        <ele>1598.5</ele>
        <time>2020-07-11T10:38:09Z</time>
      </trkpt>
      <trkpt lat="44.781978" lon="6.529092">
        <ele>1594.5</ele>
        <time>2020-07-11T10:38:18Z</time>
      </trkpt>
      <trkpt lat="44.781948" lon="6.529195">
        <ele>1593.8</ele>
        <time>2020-07-11T10:38:25Z</time>
      </trkpt>
      <trkpt lat="44.781895" lon="6.529287">
        <ele>1591.8</ele>
        <time>2020-07-11T10:38:33Z</time>
      </trkpt>
      <trkpt lat="44.781833" lon="6.529363">
        <ele>1591.1</ele>
        <time>2020-07-11T10:38:38Z</time>
      </trkpt>
      <trkpt lat="44.781768" lon="6.529438">
        <ele>1590.5</ele>
        <time>2020-07-11T10:38:44Z</time>
      </trkpt>
      <trkpt lat="44.781708" lon="6.529532">
        <ele>1590.8</ele>
        <time>2020-07-11T10:38:52Z</time>
      </trkpt>
      <trkpt lat="44.781655" lon="6.529622">
        <ele>1591.0</ele>
        <time>2020-07-11T10:38:59Z</time>
      </trkpt>
      <trkpt lat="44.781597" lon="6.529708">
        <ele>1591.2</ele>
        <time>2020-07-11T10:39:06Z</time>
      </trkpt>
      <trkpt lat="44.781535" lon="6.529800">
        <ele>1591.1</ele>
        <time>2020-07-11T10:39:14Z</time>
      </trkpt>
      <trkpt lat="44.781560" lon="6.529910">
        <ele>1590.8</ele>
        <time>2020-07-11T10:39:22Z</time>
      </trkpt>
      <trkpt lat="44.781633" lon="6.529968">
        <ele>1591.3</ele>
        <time>2020-07-11T10:40:08Z</time>
      </trkpt>
      <trkpt lat="44.781700" lon="6.529903">
        <ele>1591.2</ele>
        <time>2020-07-11T10:40:14Z</time>
      </trkpt>
      <trkpt lat="44.781775" lon="6.529852">
        <ele>1590.6</ele>
        <time>2020-07-11T10:40:21Z</time>
      </trkpt>
      <trkpt lat="44.781853" lon="6.529800">
        <ele>1590.5</ele>
        <time>2020-07-11T10:40:28Z</time>
      </trkpt>
      <trkpt lat="44.781925" lon="6.529750">
        <ele>1590.7</ele>
        <time>2020-07-11T10:40:35Z</time>
      </trkpt>
      <trkpt lat="44.782008" lon="6.529710">
        <ele>1590.8</ele>
        <time>2020-07-11T10:40:43Z</time>
      </trkpt>
      <trkpt lat="44.782088" lon="6.529653">
        <ele>1591.0</ele>
        <time>2020-07-11T10:40:50Z</time>
      </trkpt>
      <trkpt lat="44.782157" lon="6.529587">
        <ele>1592.2</ele>
        <time>2020-07-11T10:40:57Z</time>
      </trkpt>
      <trkpt lat="44.782230" lon="6.529530">
        <ele>1592.2</ele>
        <time>2020-07-11T10:41:04Z</time>
      </trkpt>
      <trkpt lat="44.782300" lon="6.529465">
        <ele>1592.6</ele>
        <time>2020-07-11T10:41:11Z</time>
      </trkpt>
      <trkpt lat="44.782337" lon="6.529353">
        <ele>1593.7</ele>
        <time>2020-07-11T10:41:18Z</time>
      </trkpt>
      <trkpt lat="44.782403" lon="6.529278">
        <ele>1593.5</ele>
        <time>2020-07-11T10:41:26Z</time>
      </trkpt>
      <trkpt lat="44.782472" lon="6.529212">
        <ele>1591.2</ele>
        <time>2020-07-11T10:41:35Z</time>
      </trkpt>
      <trkpt lat="44.782540" lon="6.529147">
        <ele>1588.8</ele>
        <time>2020-07-11T10:41:44Z</time>
      </trkpt>
      <trkpt lat="44.782605" lon="6.529083">
        <ele>1586.9</ele>
        <time>2020-07-11T10:41:50Z</time>
      </trkpt>
      <trkpt lat="44.782653" lon="6.528978">
        <ele>1585.7</ele>
        <time>2020-07-11T10:41:57Z</time>
      </trkpt>
      <trkpt lat="44.782715" lon="6.528898">
        <ele>1585.4</ele>
        <time>2020-07-11T10:42:04Z</time>
      </trkpt>
      <trkpt lat="44.782803" lon="6.528903">
        <ele>1583.3</ele>
        <time>2020-07-11T10:42:12Z</time>
      </trkpt>
      <trkpt lat="44.782817" lon="6.529013">
        <ele>1583.5</ele>
        <time>2020-07-11T10:42:18Z</time>
      </trkpt>
      <trkpt lat="44.782785" lon="6.529130">
        <ele>1583.3</ele>
        <time>2020-07-11T10:42:26Z</time>
      </trkpt>
      <trkpt lat="44.782742" lon="6.529240">
        <ele>1583.0</ele>
        <time>2020-07-11T10:42:34Z</time>
      </trkpt>
      <trkpt lat="44.782717" lon="6.529362">
        <ele>1582.4</ele>
        <time>2020-07-11T10:42:42Z</time>
      </trkpt>
      <trkpt lat="44.782693" lon="6.529467">
        <ele>1582.5</ele>
        <time>2020-07-11T10:42:49Z</time>
      </trkpt>
      <trkpt lat="44.782650" lon="6.529577">
        <ele>1581.8</ele>
        <time>2020-07-11T10:42:57Z</time>
      </trkpt>
      <trkpt lat="44.782622" lon="6.529680">
        <ele>1582.6</ele>
        <time>2020-07-11T10:43:04Z</time>
      </trkpt>
      <trkpt lat="44.782582" lon="6.529777">
        <ele>1582.1</ele>
        <time>2020-07-11T10:43:11Z</time>
      </trkpt>
      <trkpt lat="44.782543" lon="6.529880">
        <ele>1580.6</ele>
        <time>2020-07-11T10:43:18Z</time>
      </trkpt>
      <trkpt lat="44.782502" lon="6.529988">
        <ele>1579.3</ele>
        <time>2020-07-11T10:43:25Z</time>
      </trkpt>
      <trkpt lat="44.782450" lon="6.530082">
        <ele>1578.8</ele>
        <time>2020-07-11T10:43:32Z</time>
      </trkpt>
      <trkpt lat="44.782413" lon="6.530185">
        <ele>1577.4</ele>
        <time>2020-07-11T10:43:39Z</time>
      </trkpt>
      <trkpt lat="44.782380" lon="6.530285">
        <ele>1576.5</ele>
        <time>2020-07-11T10:43:46Z</time>
      </trkpt>
      <trkpt lat="44.782347" lon="6.530387">
        <ele>1576.8</ele>
        <time>2020-07-11T10:43:53Z</time>
      </trkpt>
      <trkpt lat="44.782317" lon="6.530492">
        <ele>1577.1</ele>
        <time>2020-07-11T10:44:00Z</time>
      </trkpt>
      <trkpt lat="44.782263" lon="6.530590">
        <ele>1576.6</ele>
        <time>2020-07-11T10:44:08Z</time>
      </trkpt>
      <trkpt lat="44.782252" lon="6.530707">
        <ele>1575.7</ele>
        <time>2020-07-11T10:44:16Z</time>
      </trkpt>
      <trkpt lat="44.782333" lon="6.530750">
        <ele>1574.4</ele>
        <time>2020-07-11T10:44:26Z</time>
      </trkpt>
      <trkpt lat="44.782393" lon="6.530667">
        <ele>1573.8</ele>
        <time>2020-07-11T10:44:34Z</time>
      </trkpt>
      <trkpt lat="44.782470" lon="6.530628">
        <ele>1570.8</ele>
        <time>2020-07-11T10:44:40Z</time>
      </trkpt>
      <trkpt lat="44.782397" lon="6.530657">
        <ele>1569.6</ele>
        <time>2020-07-11T10:45:00Z</time>
      </trkpt>
      <trkpt lat="44.782328" lon="6.530720">
        <ele>1569.8</ele>
        <time>2020-07-11T10:45:08Z</time>
      </trkpt>
      <trkpt lat="44.782245" lon="6.530732">
        <ele>1567.7</ele>
        <time>2020-07-11T10:45:15Z</time>
      </trkpt>
      <trkpt lat="44.782197" lon="6.530837">
        <ele>1568.8</ele>
        <time>2020-07-11T10:45:31Z</time>
      </trkpt>
      <trkpt lat="44.782128" lon="6.530902">
        <ele>1569.5</ele>
        <time>2020-07-11T10:45:39Z</time>
      </trkpt>
      <trkpt lat="44.782070" lon="6.530993">
        <ele>1570.6</ele>
        <time>2020-07-11T10:45:54Z</time>
      </trkpt>
      <trkpt lat="44.782012" lon="6.531075">
        <ele>1569.2</ele>
        <time>2020-07-11T10:46:01Z</time>
      </trkpt>
      <trkpt lat="44.781973" lon="6.531180">
        <ele>1567.0</ele>
        <time>2020-07-11T10:46:12Z</time>
      </trkpt>
      <trkpt lat="44.781948" lon="6.531298">
        <ele>1564.1</ele>
        <time>2020-07-11T10:46:25Z</time>
      </trkpt>
      <trkpt lat="44.781895" lon="6.531397">
        <ele>1561.9</ele>
        <time>2020-07-11T10:46:55Z</time>
      </trkpt>
      <trkpt lat="44.781828" lon="6.531467">
        <ele>1561.6</ele>
        <time>2020-07-11T10:47:03Z</time>
      </trkpt>
      <trkpt lat="44.781758" lon="6.531543">
        <ele>1562.6</ele>
        <time>2020-07-11T10:47:13Z</time>
      </trkpt>
      <trkpt lat="44.781695" lon="6.531628">
        <ele>1563.4</ele>
        <time>2020-07-11T10:47:25Z</time>
      </trkpt>
      <trkpt lat="44.781618" lon="6.531687">
        <ele>1561.8</ele>
        <time>2020-07-11T10:47:35Z</time>
      </trkpt>
      <trkpt lat="44.781602" lon="6.531802">
        <ele>1560.8</ele>
        <time>2020-07-11T10:47:45Z</time>
      </trkpt>
      <trkpt lat="44.781547" lon="6.531892">
        <ele>1560.7</ele>
        <time>2020-07-11T10:47:55Z</time>
      </trkpt>
      <trkpt lat="44.781503" lon="6.532002">
        <ele>1558.4</ele>
        <time>2020-07-11T10:48:21Z</time>
      </trkpt>
      <trkpt lat="44.781442" lon="6.532090">
        <ele>1556.9</ele>
        <time>2020-07-11T10:48:39Z</time>
      </trkpt>
      <trkpt lat="44.781378" lon="6.532168">
        <ele>1557.2</ele>
        <time>2020-07-11T10:49:18Z</time>
      </trkpt>
      <trkpt lat="44.781308" lon="6.532227">
        <ele>1556.3</ele>
        <time>2020-07-11T10:49:25Z</time>
      </trkpt>
      <trkpt lat="44.781248" lon="6.532315">
        <ele>1556.1</ele>
        <time>2020-07-11T10:49:35Z</time>
      </trkpt>
      <trkpt lat="44.781215" lon="6.532420">
        <ele>1556.3</ele>
        <time>2020-07-11T10:50:02Z</time>
      </trkpt>
      <trkpt lat="44.781192" lon="6.532542">
        <ele>1556.4</ele>
        <time>2020-07-11T10:50:19Z</time>
      </trkpt>
      <trkpt lat="44.781142" lon="6.532645">
        <ele>1557.1</ele>
        <time>2020-07-11T10:50:29Z</time>
      </trkpt>
      <trkpt lat="44.781077" lon="6.532723">
        <ele>1554.2</ele>
        <time>2020-07-11T10:50:42Z</time>
      </trkpt>
      <trkpt lat="44.781070" lon="6.532845">
        <ele>1550.0</ele>
        <time>2020-07-11T10:53:49Z</time>
      </trkpt>
      <trkpt lat="44.781022" lon="6.532943">
        <ele>1548.7</ele>
        <time>2020-07-11T10:54:00Z</time>
      </trkpt>
      <trkpt lat="44.780970" lon="6.533045">
        <ele>1548.2</ele>
        <time>2020-07-11T10:54:15Z</time>
      </trkpt>
      <trkpt lat="44.780982" lon="6.533165">
        <ele>1547.3</ele>
        <time>2020-07-11T10:54:57Z</time>
      </trkpt>
      <trkpt lat="44.780990" lon="6.533277">
        <ele>1547.1</ele>
        <time>2020-07-11T10:55:06Z</time>
      </trkpt>
      <trkpt lat="44.780990" lon="6.533393">
        <ele>1546.9</ele>
        <time>2020-07-11T10:55:26Z</time>
      </trkpt>
      <trkpt lat="44.780972" lon="6.533515">
        <ele>1545.4</ele>
        <time>2020-07-11T10:55:45Z</time>
      </trkpt>
      <trkpt lat="44.780960" lon="6.533605">
        <ele>1543.4</ele>
        <time>2020-07-11T10:56:11Z</time>
      </trkpt>
      <trkpt lat="44.780965" lon="6.533722">
        <ele>1543.2</ele>
        <time>2020-07-11T10:56:19Z</time>
      </trkpt>
      <trkpt lat="44.780988" lon="6.533842">
        <ele>1539.3</ele>
        <time>2020-07-11T10:56:35Z</time>
      </trkpt>
      <trkpt lat="44.780993" lon="6.533963">
        <ele>1533.3</ele>
        <time>2020-07-11T10:57:25Z</time>
      </trkpt>
      <trkpt lat="44.780942" lon="6.534063">
        <ele>1527.7</ele>
        <time>2020-07-11T10:58:03Z</time>
      </trkpt>
      <trkpt lat="44.780902" lon="6.534168">
        <ele>1525.9</ele>
        <time>2020-07-11T10:58:15Z</time>
      </trkpt>
      <trkpt lat="44.780980" lon="6.534200">
        <ele>1522.2</ele>
        <time>2020-07-11T10:59:03Z</time>
      </trkpt>
      <trkpt lat="44.781038" lon="6.534112">
        <ele>1518.8</ele>
        <time>2020-07-11T10:59:12Z</time>
      </trkpt>
      <trkpt lat="44.781107" lon="6.534052">
        <ele>1513.1</ele>
        <time>2020-07-11T10:59:46Z</time>
      </trkpt>
      <trkpt lat="44.781187" lon="6.534002">
        <ele>1507.4</ele>
        <time>2020-07-11T11:00:06Z</time>
      </trkpt>
      <trkpt lat="44.781275" lon="6.533985">
        <ele>1500.7</ele>
        <time>2020-07-11T11:01:00Z</time>
      </trkpt>
      <trkpt lat="44.781332" lon="6.533888">
        <ele>1496.9</ele>
        <time>2020-07-11T11:01:51Z</time>
      </trkpt>
      <trkpt lat="44.781405" lon="6.533822">
        <ele>1493.2</ele>
        <time>2020-07-11T11:02:12Z</time>
      </trkpt>
      <trkpt lat="44.781398" lon="6.533902">
        <ele>1488.2</ele>
        <time>2020-07-11T11:03:37Z</time>
      </trkpt>
      <trkpt lat="44.781372" lon="6.534018">
        <ele>1483.3</ele>
        <time>2020-07-11T11:03:40Z</time>
      </trkpt>
      <trkpt lat="44.781460" lon="6.534000">
        <ele>1478.6</ele>
        <time>2020-07-11T11:04:18Z</time>
      </trkpt>
      <trkpt lat="44.781513" lon="6.533930">
        <ele>1476.5</ele>
        <time>2020-07-11T11:04:58Z</time>
      </trkpt>
      <trkpt lat="44.781585" lon="6.533853">
        <ele>1473.0</ele>
        <time>2020-07-11T11:05:17Z</time>
      </trkpt>
      <trkpt lat="44.781615" lon="6.533970">
        <ele>1469.3</ele>
        <time>2020-07-11T11:05:59Z</time>
      </trkpt>
      <trkpt lat="44.781570" lon="6.534075">
        <ele>1467.3</ele>
        <time>2020-07-11T11:06:28Z</time>
      </trkpt>
      <trkpt lat="44.781512" lon="6.534165">
        <ele>1465.8</ele>
        <time>2020-07-11T11:06:39Z</time>
      </trkpt>
      <trkpt lat="44.781482" lon="6.534282">
        <ele>1461.5</ele>
        <time>2020-07-11T11:07:08Z</time>
      </trkpt>
      <trkpt lat="44.781555" lon="6.534352">
        <ele>1455.8</ele>
        <time>2020-07-11T11:07:51Z</time>
      </trkpt>
      <trkpt lat="44.781623" lon="6.534283">
        <ele>1453.5</ele>
        <time>2020-07-11T11:08:05Z</time>
      </trkpt>
      <trkpt lat="44.781683" lon="6.534200">
        <ele>1452.7</ele>
        <time>2020-07-11T11:08:16Z</time>
      </trkpt>
      <trkpt lat="44.781737" lon="6.534102">
        <ele>1452.1</ele>
        <time>2020-07-11T11:08:27Z</time>
      </trkpt>
      <trkpt lat="44.781797" lon="6.534015">
        <ele>1449.4</ele>
        <time>2020-07-11T11:08:47Z</time>
      </trkpt>
      <trkpt lat="44.781835" lon="6.533913">
        <ele>1449.7</ele>
        <time>2020-07-11T11:09:03Z</time>
      </trkpt>
      <trkpt lat="44.781815" lon="6.533792">
        <ele>1449.0</ele>
        <time>2020-07-11T11:09:29Z</time>
      </trkpt>
      <trkpt lat="44.781828" lon="6.533667">
        <ele>1448.9</ele>
        <time>2020-07-11T11:09:54Z</time>
      </trkpt>
      <trkpt lat="44.781873" lon="6.533560">
        <ele>1447.3</ele>
        <time>2020-07-11T11:10:20Z</time>
      </trkpt>
      <trkpt lat="44.781945" lon="6.533485">
        <ele>1444.8</ele>
        <time>2020-07-11T11:10:37Z</time>
      </trkpt>
      <trkpt lat="44.782023" lon="6.533435">
        <ele>1443.9</ele>
        <time>2020-07-11T11:10:52Z</time>
      </trkpt>
      <trkpt lat="44.782103" lon="6.533380">
        <ele>1444.1</ele>
        <time>2020-07-11T11:11:16Z</time>
      </trkpt>
      <trkpt lat="44.782163" lon="6.533288">
        <ele>1445.1</ele>
        <time>2020-07-11T11:11:32Z</time>
      </trkpt>
      <trkpt lat="44.782233" lon="6.533217">
        <ele>1445.6</ele>
        <time>2020-07-11T11:11:49Z</time>
      </trkpt>
      <trkpt lat="44.782312" lon="6.533177">
        <ele>1446.1</ele>
        <time>2020-07-11T11:12:05Z</time>
      </trkpt>
      <trkpt lat="44.782358" lon="6.533257">
        <ele>1445.2</ele>
        <time>2020-07-11T11:12:18Z</time>
      </trkpt>
      <trkpt lat="44.782382" lon="6.533373">
        <ele>1445.1</ele>
        <time>2020-07-11T11:12:26Z</time>
      </trkpt>
      <trkpt lat="44.782400" lon="6.533492">
        <ele>1443.2</ele>
        <time>2020-07-11T11:12:40Z</time>
      </trkpt>
      <trkpt lat="44.782373" lon="6.533604">
        <ele>1442.5</ele>
        <time>2020-07-11T11:12:51Z</time>
      </trkpt>
      <trkpt lat="44.782343" lon="6.533719">
        <ele>1441.0</ele>
        <time>2020-07-11T11:13:11Z</time>
      </trkpt>
      <trkpt lat="44.782340" lon="6.533833">
        <ele>1439.9</ele>
        <time>2020-07-11T11:13:24Z</time>
      </trkpt>
      <trkpt lat="44.782327" lon="6.533957">
        <ele>1438.2</ele>
        <time>2020-07-11T11:13:39Z</time>
      </trkpt>
      <trkpt lat="44.782327" lon="6.534082">
        <ele>1434.4</ele>
        <time>2020-07-11T11:13:55Z</time>
      </trkpt>
      <trkpt lat="44.782332" lon="6.534202">
        <ele>1429.6</ele>
        <time>2020-07-11T11:14:18Z</time>
      </trkpt>
      <trkpt lat="44.782343" lon="6.534322">
        <ele>1426.2</ele>
        <time>2020-07-11T11:14:33Z</time>
      </trkpt>
      <trkpt lat="44.782358" lon="6.534427">
        <ele>1423.3</ele>
        <time>2020-07-11T11:14:51Z</time>
      </trkpt>
      <trkpt lat="44.782380" lon="6.534548">
        <ele>1416.4</ele>
        <time>2020-07-11T11:15:15Z</time>
      </trkpt>
      <trkpt lat="44.782428" lon="6.534652">
        <ele>1411.8</ele>
        <time>2020-07-11T11:15:40Z</time>
      </trkpt>
      <trkpt lat="44.782397" lon="6.534768">
        <ele>1408.6</ele>
        <time>2020-07-11T11:15:52Z</time>
      </trkpt>
      <trkpt lat="44.782397" lon="6.534892">
        <ele>1402.8</ele>
        <time>2020-07-11T11:16:21Z</time>
      </trkpt>
      <trkpt lat="44.782448" lon="6.534995">
        <ele>1397.2</ele>
        <time>2020-07-11T11:16:49Z</time>
      </trkpt>
      <trkpt lat="44.782462" lon="6.535115">
        <ele>1393.5</ele>
        <time>2020-07-11T11:17:08Z</time>
      </trkpt>
      <trkpt lat="44.782473" lon="6.535235">
        <ele>1391.4</ele>
        <time>2020-07-11T11:17:18Z</time>
      </trkpt>
      <trkpt lat="44.782473" lon="6.535358">
        <ele>1389.0</ele>
        <time>2020-07-11T11:17:31Z</time>
      </trkpt>
      <trkpt lat="44.782477" lon="6.535480">
        <ele>1385.9</ele>
        <time>2020-07-11T11:17:46Z</time>
      </trkpt>
      <trkpt lat="44.782500" lon="6.535602">
        <ele>1384.4</ele>
        <time>2020-07-11T11:17:56Z</time>
      </trkpt>
      <trkpt lat="44.782477" lon="6.535720">
        <ele>1381.5</ele>
        <time>2020-07-11T11:18:09Z</time>
      </trkpt>
      <trkpt lat="44.782472" lon="6.535843">
        <ele>1379.0</ele>
        <time>2020-07-11T11:18:20Z</time>
      </trkpt>
      <trkpt lat="44.782465" lon="6.535965">
        <ele>1375.9</ele>
        <time>2020-07-11T11:18:31Z</time>
      </trkpt>
      <trkpt lat="44.782450" lon="6.536085">
        <ele>1373.7</ele>
        <time>2020-07-11T11:18:41Z</time>
      </trkpt>
      <trkpt lat="44.782505" lon="6.536182">
        <ele>1371.7</ele>
        <time>2020-07-11T11:18:51Z</time>
      </trkpt>
      <trkpt lat="44.782572" lon="6.536253">
        <ele>1369.8</ele>
        <time>2020-07-11T11:19:01Z</time>
      </trkpt>
      <trkpt lat="44.782660" lon="6.536240">
        <ele>1366.6</ele>
        <time>2020-07-11T11:19:38Z</time>
      </trkpt>
      <trkpt lat="44.782657" lon="6.536367">
        <ele>1363.2</ele>
        <time>2020-07-11T11:19:55Z</time>
      </trkpt>
      <trkpt lat="44.782668" lon="6.536487">
        <ele>1359.6</ele>
        <time>2020-07-11T11:20:11Z</time>
      </trkpt>
      <trkpt lat="44.782738" lon="6.536565">
        <ele>1355.2</ele>
        <time>2020-07-11T11:20:27Z</time>
      </trkpt>
      <trkpt lat="44.782803" lon="6.536495">
        <ele>1351.8</ele>
        <time>2020-07-11T11:20:41Z</time>
      </trkpt>
      <trkpt lat="44.782885" lon="6.536542">
        <ele>1348.1</ele>
        <time>2020-07-11T11:21:19Z</time>
      </trkpt>
      <trkpt lat="44.782867" lon="6.536658">
        <ele>1345.3</ele>
        <time>2020-07-11T11:21:32Z</time>
      </trkpt>
      <trkpt lat="44.782827" lon="6.536767">
        <ele>1343.6</ele>
        <time>2020-07-11T11:21:43Z</time>
      </trkpt>
      <trkpt lat="44.782780" lon="6.536868">
        <ele>1341.7</ele>
        <time>2020-07-11T11:21:54Z</time>
      </trkpt>
      <trkpt lat="44.782722" lon="6.536947">
        <ele>1340.6</ele>
        <time>2020-07-11T11:22:05Z</time>
      </trkpt>
      <trkpt lat="44.782673" lon="6.537048">
        <ele>1338.3</ele>
        <time>2020-07-11T11:22:16Z</time>
      </trkpt>
      <trkpt lat="44.782603" lon="6.537120">
        <ele>1336.6</ele>
        <time>2020-07-11T11:22:26Z</time>
      </trkpt>
      <trkpt lat="44.782540" lon="6.537203">
        <ele>1336.4</ele>
        <time>2020-07-11T11:22:36Z</time>
      </trkpt>
      <trkpt lat="44.782490" lon="6.537295">
        <ele>1331.4</ele>
        <time>2020-07-11T11:22:49Z</time>
      </trkpt>
      <trkpt lat="44.782440" lon="6.537398">
        <ele>1329.4</ele>
        <time>2020-07-11T11:23:00Z</time>
      </trkpt>
      <trkpt lat="44.782405" lon="6.537510">
        <ele>1327.5</ele>
        <time>2020-07-11T11:23:13Z</time>
      </trkpt>
      <trkpt lat="44.782340" lon="6.537590">
        <ele>1326.7</ele>
        <time>2020-07-11T11:23:23Z</time>
      </trkpt>
      <trkpt lat="44.782422" lon="6.537575">
        <ele>1325.8</ele>
        <time>2020-07-11T11:23:34Z</time>
      </trkpt>
      <trkpt lat="44.782507" lon="6.537537">
        <ele>1323.9</ele>
        <time>2020-07-11T11:23:45Z</time>
      </trkpt>
      <trkpt lat="44.782590" lon="6.537533">
        <ele>1321.3</ele>
        <time>2020-07-11T11:24:00Z</time>
      </trkpt>
      <trkpt lat="44.782673" lon="6.537493">
        <ele>1319.0</ele>
        <time>2020-07-11T11:24:14Z</time>
      </trkpt>
      <trkpt lat="44.782757" lon="6.537485">
        <ele>1317.5</ele>
        <time>2020-07-11T11:24:27Z</time>
      </trkpt>
      <trkpt lat="44.782840" lon="6.537485">
        <ele>1314.4</ele>
        <time>2020-07-11T11:24:36Z</time>
      </trkpt>
      <trkpt lat="44.782872" lon="6.537597">
        <ele>1306.5</ele>
        <time>2020-07-11T11:25:00Z</time>
      </trkpt>
      <trkpt lat="44.782818" lon="6.537697">
        <ele>1305.3</ele>
        <time>2020-07-11T11:25:10Z</time>
      </trkpt>
      <trkpt lat="44.782767" lon="6.537793">
        <ele>1303.9</ele>
        <time>2020-07-11T11:25:23Z</time>
      </trkpt>
      <trkpt lat="44.782853" lon="6.537778">
        <ele>1299.3</ele>
        <time>2020-07-11T11:25:50Z</time>
      </trkpt>
      <trkpt lat="44.782942" lon="6.537772">
        <ele>1296.9</ele>
        <time>2020-07-11T11:26:01Z</time>
      </trkpt>
      <trkpt lat="44.782920" lon="6.537883">
        <ele>1292.1</ele>
        <time>2020-07-11T11:26:21Z</time>
      </trkpt>
      <trkpt lat="44.782998" lon="6.537945">
        <ele>1289.2</ele>
        <time>2020-07-11T11:27:13Z</time>
      </trkpt>
      <trkpt lat="44.783080" lon="6.537965">
        <ele>1288.3</ele>
        <time>2020-07-11T11:27:26Z</time>
      </trkpt>
      <trkpt lat="44.783052" lon="6.538078">
        <ele>1286.9</ele>
        <time>2020-07-11T11:27:37Z</time>
      </trkpt>
      <trkpt lat="44.782995" lon="6.538170">
        <ele>1285.2</ele>
        <time>2020-07-11T11:27:46Z</time>
      </trkpt>
      <trkpt lat="44.782945" lon="6.538267">
        <ele>1282.4</ele>
        <time>2020-07-11T11:28:10Z</time>
      </trkpt>
      <trkpt lat="44.783027" lon="6.538308">
        <ele>1278.5</ele>
        <time>2020-07-11T11:28:27Z</time>
      </trkpt>
      <trkpt lat="44.783005" lon="6.538425">
        <ele>1275.4</ele>
        <time>2020-07-11T11:28:40Z</time>
      </trkpt>
      <trkpt lat="44.783087" lon="6.538415">
        <ele>1270.0</ele>
        <time>2020-07-11T11:29:01Z</time>
      </trkpt>
      <trkpt lat="44.783170" lon="6.538378">
        <ele>1268.1</ele>
        <time>2020-07-11T11:29:10Z</time>
      </trkpt>
      <trkpt lat="44.783255" lon="6.538382">
        <ele>1264.0</ele>
        <time>2020-07-11T11:29:22Z</time>
      </trkpt>
      <trkpt lat="44.783295" lon="6.538485">
        <ele>1261.3</ele>
        <time>2020-07-11T11:29:41Z</time>
      </trkpt>
      <trkpt lat="44.783367" lon="6.538560">
        <ele>1259.3</ele>
        <time>2020-07-11T11:29:56Z</time>
      </trkpt>
      <trkpt lat="44.783448" lon="6.538605">
        <ele>1257.7</ele>
        <time>2020-07-11T11:30:07Z</time>
      </trkpt>
      <trkpt lat="44.783533" lon="6.538638">
        <ele>1254.4</ele>
        <time>2020-07-11T11:30:32Z</time>
      </trkpt>
      <trkpt lat="44.783608" lon="6.538573">
        <ele>1254.1</ele>
        <time>2020-07-11T11:31:12Z</time>
      </trkpt>
      <trkpt lat="44.783565" lon="6.538468">
        <ele>1254.9</ele>
        <time>2020-07-11T11:31:35Z</time>
      </trkpt>
      <trkpt lat="44.783525" lon="6.538368">
        <ele>1254.2</ele>
        <time>2020-07-11T11:31:46Z</time>
      </trkpt>
      <trkpt lat="44.783512" lon="6.538250">
        <ele>1254.1</ele>
        <time>2020-07-11T11:33:00Z</time>
      </trkpt>
      <trkpt lat="44.783547" lon="6.538133">
        <ele>1254.1</ele>
        <time>2020-07-11T11:33:11Z</time>
      </trkpt>
      <trkpt lat="44.783593" lon="6.538028">
        <ele>1255.3</ele>
        <time>2020-07-11T11:33:24Z</time>
      </trkpt>
      <trkpt lat="44.783615" lon="6.537917">
        <ele>1255.6</ele>
        <time>2020-07-11T11:33:33Z</time>
      </trkpt>
      <trkpt lat="44.783602" lon="6.537802">
        <ele>1256.3</ele>
        <time>2020-07-11T11:33:42Z</time>
      </trkpt>
      <trkpt lat="44.783663" lon="6.537713">
        <ele>1257.9</ele>
        <time>2020-07-11T11:33:52Z</time>
      </trkpt>
      <trkpt lat="44.783717" lon="6.537612">
        <ele>1257.5</ele>
        <time>2020-07-11T11:34:03Z</time>
      </trkpt>
      <trkpt lat="44.783770" lon="6.537518">
        <ele>1257.5</ele>
        <time>2020-07-11T11:34:12Z</time>
      </trkpt>
      <trkpt lat="44.783813" lon="6.537413">
        <ele>1258.1</ele>
        <time>2020-07-11T11:34:20Z</time>
      </trkpt>
      <trkpt lat="44.783880" lon="6.537333">
        <ele>1257.4</ele>
        <time>2020-07-11T11:34:30Z</time>
      </trkpt>
      <trkpt lat="44.783925" lon="6.537235">
        <ele>1257.4</ele>
        <time>2020-07-11T11:34:39Z</time>
      </trkpt>
      <trkpt lat="44.783935" lon="6.537115">
        <ele>1256.9</ele>
        <time>2020-07-11T11:34:48Z</time>
      </trkpt>
      <trkpt lat="44.783980" lon="6.537007">
        <ele>1255.4</ele>
        <time>2020-07-11T11:34:56Z</time>
      </trkpt>
      <trkpt lat="44.784005" lon="6.536885">
        <ele>1253.6</ele>
        <time>2020-07-11T11:35:06Z</time>
      </trkpt>
      <trkpt lat="44.784060" lon="6.536790">
        <ele>1253.5</ele>
        <time>2020-07-11T11:35:16Z</time>
      </trkpt>
      <trkpt lat="44.784137" lon="6.536733">
        <ele>1253.5</ele>
        <time>2020-07-11T11:35:25Z</time>
      </trkpt>
      <trkpt lat="44.784197" lon="6.536642">
        <ele>1253.4</ele>
        <time>2020-07-11T11:35:34Z</time>
      </trkpt>
      <trkpt lat="44.784257" lon="6.536562">
        <ele>1252.9</ele>
        <time>2020-07-11T11:35:46Z</time>
      </trkpt>
      <trkpt lat="44.784315" lon="6.536467">
        <ele>1251.9</ele>
        <time>2020-07-11T11:35:58Z</time>
      </trkpt>
      <trkpt lat="44.784303" lon="6.536343">
        <ele>1255.1</ele>
        <time>2020-07-11T11:37:02Z</time>
      </trkpt>
      <trkpt lat="44.784267" lon="6.536235">
        <ele>1260.0</ele>
        <time>2020-07-11T11:37:46Z</time>
      </trkpt>
      <trkpt lat="44.784215" lon="6.536135">
        <ele>1261.1</ele>
        <time>2020-07-11T11:37:58Z</time>
      </trkpt>
      <trkpt lat="44.784198" lon="6.536017">
        <ele>1262.0</ele>
        <time>2020-07-11T11:38:09Z</time>
      </trkpt>
      <trkpt lat="44.784247" lon="6.535915">
        <ele>1263.9</ele>
        <time>2020-07-11T11:38:21Z</time>
      </trkpt>
      <trkpt lat="44.784300" lon="6.535818">
        <ele>1266.7</ele>
        <time>2020-07-11T11:38:32Z</time>
      </trkpt>
      <trkpt lat="44.784327" lon="6.535705">
        <ele>1270.7</ele>
        <time>2020-07-11T11:38:45Z</time>
      </trkpt>
      <trkpt lat="44.784348" lon="6.535592">
        <ele>1274.1</ele>
        <time>2020-07-11T11:38:56Z</time>
      </trkpt>
      <trkpt lat="44.784385" lon="6.535477">
        <ele>1277.8</ele>
        <time>2020-07-11T11:39:09Z</time>
      </trkpt>
      <trkpt lat="44.784422" lon="6.535370">
        <ele>1281.4</ele>
        <time>2020-07-11T11:39:19Z</time>
      </trkpt>
      <trkpt lat="44.784502" lon="6.535317">
        <ele>1285.1</ele>
        <time>2020-07-11T11:39:29Z</time>
      </trkpt>
      <trkpt lat="44.784568" lon="6.535242">
        <ele>1288.1</ele>
        <time>2020-07-11T11:39:41Z</time>
      </trkpt>
      <trkpt lat="44.784652" lon="6.535233">
        <ele>1289.7</ele>
        <time>2020-07-11T11:40:17Z</time>
      </trkpt>
      <trkpt lat="44.784717" lon="6.535173">
        <ele>1289.3</ele>
        <time>2020-07-11T11:40:26Z</time>
      </trkpt>
      <trkpt lat="44.784787" lon="6.535103">
        <ele>1289.1</ele>
        <time>2020-07-11T11:40:33Z</time>
      </trkpt>
      <trkpt lat="44.784842" lon="6.535015">
        <ele>1288.4</ele>
        <time>2020-07-11T11:40:43Z</time>
      </trkpt>
      <trkpt lat="44.784830" lon="6.534895">
        <ele>1287.4</ele>
        <time>2020-07-11T11:40:54Z</time>
      </trkpt>
      <trkpt lat="44.784812" lon="6.534777">
        <ele>1286.9</ele>
        <time>2020-07-11T11:41:03Z</time>
      </trkpt>
      <trkpt lat="44.784780" lon="6.534672">
        <ele>1285.7</ele>
        <time>2020-07-11T11:41:13Z</time>
      </trkpt>
      <trkpt lat="44.784792" lon="6.534553">
        <ele>1284.2</ele>
        <time>2020-07-11T11:41:22Z</time>
      </trkpt>
      <trkpt lat="44.784825" lon="6.534448">
        <ele>1283.9</ele>
        <time>2020-07-11T11:41:30Z</time>
      </trkpt>
      <trkpt lat="44.784852" lon="6.534333">
        <ele>1285.6</ele>
        <time>2020-07-11T11:41:40Z</time>
      </trkpt>
      <trkpt lat="44.784877" lon="6.534215">
        <ele>1287.2</ele>
        <time>2020-07-11T11:41:54Z</time>
      </trkpt>
      <trkpt lat="44.784933" lon="6.534118">
        <ele>1288.1</ele>
        <time>2020-07-11T11:42:05Z</time>
      </trkpt>
      <trkpt lat="44.785000" lon="6.534045">
        <ele>1288.7</ele>
        <time>2020-07-11T11:42:16Z</time>
      </trkpt>
      <trkpt lat="44.785047" lon="6.533948">
        <ele>1289.4</ele>
        <time>2020-07-11T11:42:26Z</time>
      </trkpt>
      <trkpt lat="44.785082" lon="6.533838">
        <ele>1289.9</ele>
        <time>2020-07-11T11:42:37Z</time>
      </trkpt>
      <trkpt lat="44.785082" lon="6.533720">
        <ele>1289.1</ele>
        <time>2020-07-11T11:42:47Z</time>
      </trkpt>
      <trkpt lat="44.785082" lon="6.533605">
        <ele>1288.1</ele>
        <time>2020-07-11T11:42:55Z</time>
      </trkpt>
      <trkpt lat="44.785120" lon="6.533495">
        <ele>1286.6</ele>
        <time>2020-07-11T11:43:03Z</time>
      </trkpt>
      <trkpt lat="44.785170" lon="6.533398">
        <ele>1286.7</ele>
        <time>2020-07-11T11:43:14Z</time>
      </trkpt>
      <trkpt lat="44.785222" lon="6.533298">
        <ele>1286.4</ele>
        <time>2020-07-11T11:43:24Z</time>
      </trkpt>
      <trkpt lat="44.785242" lon="6.533178">
        <ele>1285.0</ele>
        <time>2020-07-11T11:43:35Z</time>
      </trkpt>
      <trkpt lat="44.785257" lon="6.533058">
        <ele>1284.0</ele>
        <time>2020-07-11T11:43:45Z</time>
      </trkpt>
      <trkpt lat="44.785220" lon="6.532945">
        <ele>1282.9</ele>
        <time>2020-07-11T11:43:55Z</time>
      </trkpt>
      <trkpt lat="44.785258" lon="6.532842">
        <ele>1283.1</ele>
        <time>2020-07-11T11:44:04Z</time>
      </trkpt>
      <trkpt lat="44.785270" lon="6.532722">
        <ele>1283.0</ele>
        <time>2020-07-11T11:44:13Z</time>
      </trkpt>
      <trkpt lat="44.785275" lon="6.532603">
        <ele>1282.8</ele>
        <time>2020-07-11T11:44:24Z</time>
      </trkpt>
      <trkpt lat="44.785278" lon="6.532502">
        <ele>1282.5</ele>
        <time>2020-07-11T11:44:34Z</time>
      </trkpt>
      <trkpt lat="44.785282" lon="6.532388">
        <ele>1282.0</ele>
        <time>2020-07-11T11:44:41Z</time>
      </trkpt>
      <trkpt lat="44.785308" lon="6.532275">
        <ele>1281.9</ele>
        <time>2020-07-11T11:44:50Z</time>
      </trkpt>
      <trkpt lat="44.785343" lon="6.532163">
        <ele>1280.9</ele>
        <time>2020-07-11T11:45:02Z</time>
      </trkpt>
      <trkpt lat="44.785385" lon="6.532057">
        <ele>1281.8</ele>
        <time>2020-07-11T11:45:13Z</time>
      </trkpt>
      <trkpt lat="44.785462" lon="6.532012">
        <ele>1281.7</ele>
        <time>2020-07-11T11:45:23Z</time>
      </trkpt>
      <trkpt lat="44.785540" lon="6.532057">
        <ele>1281.9</ele>
        <time>2020-07-11T11:45:36Z</time>
      </trkpt>
      <trkpt lat="44.785627" lon="6.532070">
        <ele>1282.0</ele>
        <time>2020-07-11T11:45:45Z</time>
      </trkpt>
      <trkpt lat="44.785712" lon="6.532098">
        <ele>1281.7</ele>
        <time>2020-07-11T11:45:55Z</time>
      </trkpt>
      <trkpt lat="44.785792" lon="6.532122">
        <ele>1282.3</ele>
        <time>2020-07-11T11:46:04Z</time>
      </trkpt>
      <trkpt lat="44.785875" lon="6.532155">
        <ele>1283.3</ele>
        <time>2020-07-11T11:46:14Z</time>
      </trkpt>
      <trkpt lat="44.785955" lon="6.532188">
        <ele>1283.9</ele>
        <time>2020-07-11T11:46:23Z</time>
      </trkpt>
      <trkpt lat="44.786035" lon="6.532168">
        <ele>1284.9</ele>
        <time>2020-07-11T11:46:31Z</time>
      </trkpt>
      <trkpt lat="44.786115" lon="6.532117">
        <ele>1285.1</ele>
        <time>2020-07-11T11:46:42Z</time>
      </trkpt>
      <trkpt lat="44.786183" lon="6.532048">
        <ele>1285.5</ele>
        <time>2020-07-11T11:46:55Z</time>
      </trkpt>
      <trkpt lat="44.786253" lon="6.531985">
        <ele>1286.0</ele>
        <time>2020-07-11T11:47:04Z</time>
      </trkpt>
      <trkpt lat="44.786315" lon="6.531893">
        <ele>1286.2</ele>
        <time>2020-07-11T11:47:14Z</time>
      </trkpt>
      <trkpt lat="44.786347" lon="6.531782">
        <ele>1286.6</ele>
        <time>2020-07-11T11:47:22Z</time>
      </trkpt>
      <trkpt lat="44.786390" lon="6.531682">
        <ele>1288.1</ele>
        <time>2020-07-11T11:47:30Z</time>
      </trkpt>
      <trkpt lat="44.786457" lon="6.531602">
        <ele>1289.7</ele>
        <time>2020-07-11T11:47:44Z</time>
      </trkpt>
      <trkpt lat="44.786487" lon="6.531492">
        <ele>1288.0</ele>
        <time>2020-07-11T11:47:57Z</time>
      </trkpt>
      <trkpt lat="44.786532" lon="6.531395">
        <ele>1287.9</ele>
        <time>2020-07-11T11:48:11Z</time>
      </trkpt>
      <trkpt lat="44.786553" lon="6.531282">
        <ele>1287.6</ele>
        <time>2020-07-11T11:48:19Z</time>
      </trkpt>
      <trkpt lat="44.786565" lon="6.531160">
        <ele>1286.7</ele>
        <time>2020-07-11T11:48:29Z</time>
      </trkpt>
      <trkpt lat="44.786575" lon="6.531035">
        <ele>1288.3</ele>
        <time>2020-07-11T11:48:41Z</time>
      </trkpt>
      <trkpt lat="44.786572" lon="6.530922">
        <ele>1288.6</ele>
        <time>2020-07-11T11:48:49Z</time>
      </trkpt>
      <trkpt lat="44.786562" lon="6.530800">
        <ele>1288.0</ele>
        <time>2020-07-11T11:48:59Z</time>
      </trkpt>
      <trkpt lat="44.786500" lon="6.530712">
        <ele>1286.8</ele>
        <time>2020-07-11T11:49:07Z</time>
      </trkpt>
      <trkpt lat="44.786427" lon="6.530658">
        <ele>1286.9</ele>
        <time>2020-07-11T11:49:14Z</time>
      </trkpt>
      <trkpt lat="44.786385" lon="6.530552">
        <ele>1286.8</ele>
        <time>2020-07-11T11:49:24Z</time>
      </trkpt>
      <trkpt lat="44.786338" lon="6.530453">
        <ele>1286.3</ele>
        <time>2020-07-11T11:49:31Z</time>
      </trkpt>
      <trkpt lat="44.786320" lon="6.530337">
        <ele>1285.1</ele>
        <time>2020-07-11T11:49:39Z</time>
      </trkpt>
      <trkpt lat="44.786310" lon="6.530228">
        <ele>1284.8</ele>
        <time>2020-07-11T11:49:47Z</time>
      </trkpt>
      <trkpt lat="44.786350" lon="6.530117">
        <ele>1283.8</ele>
        <time>2020-07-11T11:49:56Z</time>
      </trkpt>
      <trkpt lat="44.786378" lon="6.530002">
        <ele>1283.0</ele>
        <time>2020-07-11T11:50:04Z</time>
      </trkpt>
      <trkpt lat="44.786400" lon="6.529887">
        <ele>1282.6</ele>
        <time>2020-07-11T11:50:13Z</time>
      </trkpt>
      <trkpt lat="44.786413" lon="6.529763">
        <ele>1282.8</ele>
        <time>2020-07-11T11:50:22Z</time>
      </trkpt>
      <trkpt lat="44.786438" lon="6.529650">
        <ele>1283.4</ele>
        <time>2020-07-11T11:50:30Z</time>
      </trkpt>
      <trkpt lat="44.786473" lon="6.529538">
        <ele>1282.8</ele>
        <time>2020-07-11T11:50:40Z</time>
      </trkpt>
      <trkpt lat="44.786515" lon="6.529435">
        <ele>1283.0</ele>
        <time>2020-07-11T11:50:48Z</time>
      </trkpt>
      <trkpt lat="44.786568" lon="6.529347">
        <ele>1283.2</ele>
        <time>2020-07-11T11:50:56Z</time>
      </trkpt>
      <trkpt lat="44.786598" lon="6.529230">
        <ele>1286.1</ele>
        <time>2020-07-11T11:51:06Z</time>
      </trkpt>
      <trkpt lat="44.786635" lon="6.529128">
        <ele>1287.3</ele>
        <time>2020-07-11T11:51:14Z</time>
      </trkpt>
      <trkpt lat="44.786700" lon="6.529053">
        <ele>1287.5</ele>
        <time>2020-07-11T11:51:22Z</time>
      </trkpt>
      <trkpt lat="44.786767" lon="6.528980">
        <ele>1287.8</ele>
        <time>2020-07-11T11:51:29Z</time>
      </trkpt>
      <trkpt lat="44.786813" lon="6.528882">
        <ele>1289.5</ele>
        <time>2020-07-11T11:51:37Z</time>
      </trkpt>
      <trkpt lat="44.786865" lon="6.528790">
        <ele>1290.8</ele>
        <time>2020-07-11T11:51:45Z</time>
      </trkpt>
      <trkpt lat="44.786918" lon="6.528692">
        <ele>1290.6</ele>
        <time>2020-07-11T11:51:54Z</time>
      </trkpt>
      <trkpt lat="44.786988" lon="6.528617">
        <ele>1289.2</ele>
        <time>2020-07-11T11:52:03Z</time>
      </trkpt>
      <trkpt lat="44.787042" lon="6.528520">
        <ele>1287.1</ele>
        <time>2020-07-11T11:52:13Z</time>
      </trkpt>
      <trkpt lat="44.787093" lon="6.528423">
        <ele>1286.2</ele>
        <time>2020-07-11T11:52:21Z</time>
      </trkpt>
      <trkpt lat="44.787147" lon="6.528333">
        <ele>1286.5</ele>
        <time>2020-07-11T11:52:29Z</time>
      </trkpt>
      <trkpt lat="44.787172" lon="6.528225">
        <ele>1286.9</ele>
        <time>2020-07-11T11:52:38Z</time>
      </trkpt>
      <trkpt lat="44.787215" lon="6.528127">
        <ele>1285.7</ele>
        <time>2020-07-11T11:52:48Z</time>
      </trkpt>
      <trkpt lat="44.787268" lon="6.528035">
        <ele>1286.3</ele>
        <time>2020-07-11T11:52:57Z</time>
      </trkpt>
      <trkpt lat="44.787307" lon="6.527922">
        <ele>1285.7</ele>
        <time>2020-07-11T11:53:08Z</time>
      </trkpt>
      <trkpt lat="44.787340" lon="6.527813">
        <ele>1284.6</ele>
        <time>2020-07-11T11:53:18Z</time>
      </trkpt>
      <trkpt lat="44.787373" lon="6.527697">
        <ele>1284.8</ele>
        <time>2020-07-11T11:53:29Z</time>
      </trkpt>
      <trkpt lat="44.787427" lon="6.527597">
        <ele>1286.0</ele>
        <time>2020-07-11T11:53:40Z</time>
      </trkpt>
      <trkpt lat="44.787493" lon="6.527522">
        <ele>1288.4</ele>
        <time>2020-07-11T11:54:17Z</time>
      </trkpt>
      <trkpt lat="44.787547" lon="6.527433">
        <ele>1289.3</ele>
        <time>2020-07-11T11:54:36Z</time>
      </trkpt>
      <trkpt lat="44.787615" lon="6.527368">
        <ele>1289.6</ele>
        <time>2020-07-11T11:54:42Z</time>
      </trkpt>
      <trkpt lat="44.787680" lon="6.527292">
        <ele>1290.4</ele>
        <time>2020-07-11T11:54:50Z</time>
      </trkpt>
      <trkpt lat="44.787735" lon="6.527203">
        <ele>1291.0</ele>
        <time>2020-07-11T11:54:57Z</time>
      </trkpt>
      <trkpt lat="44.787795" lon="6.527123">
        <ele>1291.5</ele>
        <time>2020-07-11T11:55:04Z</time>
      </trkpt>
      <trkpt lat="44.787865" lon="6.527067">
        <ele>1291.4</ele>
        <time>2020-07-11T11:55:11Z</time>
      </trkpt>
      <trkpt lat="44.787932" lon="6.526997">
        <ele>1291.0</ele>
        <time>2020-07-11T11:55:18Z</time>
      </trkpt>
      <trkpt lat="44.787998" lon="6.526928">
        <ele>1290.8</ele>
        <time>2020-07-11T11:55:32Z</time>
      </trkpt>
      <trkpt lat="44.788032" lon="6.526830">
        <ele>1290.8</ele>
        <time>2020-07-11T11:55:39Z</time>
      </trkpt>
      <trkpt lat="44.788053" lon="6.526713">
        <ele>1290.9</ele>
        <time>2020-07-11T11:55:47Z</time>
      </trkpt>
      <trkpt lat="44.788100" lon="6.526613">
        <ele>1290.2</ele>
        <time>2020-07-11T11:55:54Z</time>
      </trkpt>
      <trkpt lat="44.788142" lon="6.526510">
        <ele>1290.7</ele>
        <time>2020-07-11T11:56:02Z</time>
      </trkpt>
      <trkpt lat="44.788178" lon="6.526400">
        <ele>1291.8</ele>
        <time>2020-07-11T11:56:11Z</time>
      </trkpt>
      <trkpt lat="44.788207" lon="6.526287">
        <ele>1294.6</ele>
        <time>2020-07-11T11:56:23Z</time>
      </trkpt>
      <trkpt lat="44.788283" lon="6.526235">
        <ele>1296.1</ele>
        <time>2020-07-11T11:56:38Z</time>
      </trkpt>
      <trkpt lat="44.788343" lon="6.526157">
        <ele>1296.0</ele>
        <time>2020-07-11T11:56:45Z</time>
      </trkpt>
      <trkpt lat="44.788418" lon="6.526103">
        <ele>1296.5</ele>
        <time>2020-07-11T11:56:54Z</time>
      </trkpt>
      <trkpt lat="44.788457" lon="6.525990">
        <ele>1297.8</ele>
        <time>2020-07-11T11:57:13Z</time>
      </trkpt>
      <trkpt lat="44.788498" lon="6.525880">
        <ele>1297.8</ele>
        <time>2020-07-11T11:57:24Z</time>
      </trkpt>
      <trkpt lat="44.788550" lon="6.525778">
        <ele>1298.5</ele>
        <time>2020-07-11T11:57:33Z</time>
      </trkpt>
      <trkpt lat="44.788585" lon="6.525663">
        <ele>1298.4</ele>
        <time>2020-07-11T11:57:41Z</time>
      </trkpt>
      <trkpt lat="44.788592" lon="6.525568">
        <ele>1297.7</ele>
        <time>2020-07-11T11:57:46Z</time>
      </trkpt>
      <trkpt lat="44.788580" lon="6.525453">
        <ele>1296.3</ele>
        <time>2020-07-11T11:57:50Z</time>
      </trkpt>
      <trkpt lat="44.788617" lon="6.525347">
        <ele>1293.9</ele>
        <time>2020-07-11T11:58:00Z</time>
      </trkpt>
      <trkpt lat="44.788657" lon="6.525248">
        <ele>1292.6</ele>
        <time>2020-07-11T11:58:08Z</time>
      </trkpt>
      <trkpt lat="44.788735" lon="6.525193">
        <ele>1291.3</ele>
        <time>2020-07-11T11:58:16Z</time>
      </trkpt>
      <trkpt lat="44.788697" lon="6.525093">
        <ele>1290.5</ele>
        <time>2020-07-11T11:58:22Z</time>
      </trkpt>
      <trkpt lat="44.788750" lon="6.525007">
        <ele>1289.6</ele>
        <time>2020-07-11T11:58:29Z</time>
      </trkpt>
      <trkpt lat="44.788802" lon="6.524912">
        <ele>1287.3</ele>
        <time>2020-07-11T11:58:37Z</time>
      </trkpt>
      <trkpt lat="44.788852" lon="6.524813">
        <ele>1283.9</ele>
        <time>2020-07-11T11:58:45Z</time>
      </trkpt>
      <trkpt lat="44.788935" lon="6.524830">
        <ele>1282.1</ele>
        <time>2020-07-11T11:58:51Z</time>
      </trkpt>
      <trkpt lat="44.788992" lon="6.524748">
        <ele>1277.7</ele>
        <time>2020-07-11T11:58:59Z</time>
      </trkpt>
      <trkpt lat="44.789040" lon="6.524645">
        <ele>1274.1</ele>
        <time>2020-07-11T11:59:09Z</time>
      </trkpt>
      <trkpt lat="44.789115" lon="6.524585">
        <ele>1272.9</ele>
        <time>2020-07-11T11:59:18Z</time>
      </trkpt>
      <trkpt lat="44.789173" lon="6.524507">
        <ele>1276.6</ele>
        <time>2020-07-11T11:59:33Z</time>
      </trkpt>
      <trkpt lat="44.789245" lon="6.524438">
        <ele>1279.1</ele>
        <time>2020-07-11T11:59:42Z</time>
      </trkpt>
      <trkpt lat="44.789310" lon="6.524368">
        <ele>1281.2</ele>
        <time>2020-07-11T11:59:51Z</time>
      </trkpt>
      <trkpt lat="44.789367" lon="6.524275">
        <ele>1281.4</ele>
        <time>2020-07-11T12:00:00Z</time>
      </trkpt>
      <trkpt lat="44.789420" lon="6.524187">
        <ele>1284.2</ele>
        <time>2020-07-11T12:00:10Z</time>
      </trkpt>
      <trkpt lat="44.789497" lon="6.524142">
        <ele>1284.2</ele>
        <time>2020-07-11T12:00:28Z</time>
      </trkpt>
      <trkpt lat="44.789545" lon="6.524048">
        <ele>1283.0</ele>
        <time>2020-07-11T12:00:35Z</time>
      </trkpt>
      <trkpt lat="44.789573" lon="6.523928">
        <ele>1283.7</ele>
        <time>2020-07-11T12:00:46Z</time>
      </trkpt>
      <trkpt lat="44.789597" lon="6.523813">
        <ele>1285.4</ele>
        <time>2020-07-11T12:00:58Z</time>
      </trkpt>
      <trkpt lat="44.789617" lon="6.523698">
        <ele>1287.2</ele>
        <time>2020-07-11T12:01:07Z</time>
      </trkpt>
      <trkpt lat="44.789650" lon="6.523582">
        <ele>1287.5</ele>
        <time>2020-07-11T12:01:17Z</time>
      </trkpt>
      <trkpt lat="44.789680" lon="6.523465">
        <ele>1289.5</ele>
        <time>2020-07-11T12:01:27Z</time>
      </trkpt>
      <trkpt lat="44.789682" lon="6.523350">
        <ele>1290.8</ele>
        <time>2020-07-11T12:01:34Z</time>
      </trkpt>
      <trkpt lat="44.789718" lon="6.523237">
        <ele>1293.3</ele>
        <time>2020-07-11T12:01:44Z</time>
      </trkpt>
      <trkpt lat="44.789792" lon="6.523165">
        <ele>1298.2</ele>
        <time>2020-07-11T12:02:00Z</time>
      </trkpt>
      <trkpt lat="44.789800" lon="6.523043">
        <ele>1297.6</ele>
        <time>2020-07-11T12:02:34Z</time>
      </trkpt>
      <trkpt lat="44.789810" lon="6.522922">
        <ele>1300.8</ele>
        <time>2020-07-11T12:02:49Z</time>
      </trkpt>
      <trkpt lat="44.789767" lon="6.522812">
        <ele>1303.2</ele>
        <time>2020-07-11T12:03:00Z</time>
      </trkpt>
      <trkpt lat="44.789792" lon="6.522705">
        <ele>1304.9</ele>
        <time>2020-07-11T12:03:08Z</time>
      </trkpt>
      <trkpt lat="44.789823" lon="6.522590">
        <ele>1306.2</ele>
        <time>2020-07-11T12:03:16Z</time>
      </trkpt>
      <trkpt lat="44.789865" lon="6.522492">
        <ele>1307.2</ele>
        <time>2020-07-11T12:03:25Z</time>
      </trkpt>
      <trkpt lat="44.789882" lon="6.522368">
        <ele>1308.1</ele>
        <time>2020-07-11T12:03:37Z</time>
      </trkpt>
      <trkpt lat="44.789888" lon="6.522258">
        <ele>1307.9</ele>
        <time>2020-07-11T12:03:46Z</time>
      </trkpt>
      <trkpt lat="44.789915" lon="6.522153">
        <ele>1308.2</ele>
        <time>2020-07-11T12:03:52Z</time>
      </trkpt>
      <trkpt lat="44.789949" lon="6.522043">
        <ele>1309.1</ele>
        <time>2020-07-11T12:04:02Z</time>
      </trkpt>
      <trkpt lat="44.789997" lon="6.521943">
        <ele>1309.3</ele>
        <time>2020-07-11T12:04:12Z</time>
      </trkpt>
      <trkpt lat="44.790042" lon="6.521843">
        <ele>1309.2</ele>
        <time>2020-07-11T12:04:24Z</time>
      </trkpt>
      <trkpt lat="44.790085" lon="6.521747">
        <ele>1308.7</ele>
        <time>2020-07-11T12:04:35Z</time>
      </trkpt>
      <trkpt lat="44.790000" lon="6.521715">
        <ele>1308.7</ele>
        <time>2020-07-11T12:04:47Z</time>
      </trkpt>
      <trkpt lat="44.789927" lon="6.521767">
        <ele>1309.6</ele>
        <time>2020-07-11T12:04:55Z</time>
      </trkpt>
      <trkpt lat="44.789877" lon="6.521860">
        <ele>1310.2</ele>
        <time>2020-07-11T12:05:13Z</time>
      </trkpt>
      <trkpt lat="44.789812" lon="6.521923">
        <ele>1310.8</ele>
        <time>2020-07-11T12:05:38Z</time>
      </trkpt>
      <trkpt lat="44.789757" lon="6.522003">
        <ele>1312.6</ele>
        <time>2020-07-11T12:05:45Z</time>
      </trkpt>
      <trkpt lat="44.789705" lon="6.522100">
        <ele>1313.2</ele>
        <time>2020-07-11T12:05:53Z</time>
      </trkpt>
      <trkpt lat="44.789643" lon="6.522168">
        <ele>1312.3</ele>
        <time>2020-07-11T12:06:00Z</time>
      </trkpt>
      <trkpt lat="44.789573" lon="6.522247">
        <ele>1311.2</ele>
        <time>2020-07-11T12:06:08Z</time>
      </trkpt>
      <trkpt lat="44.789508" lon="6.522323">
        <ele>1310.8</ele>
        <time>2020-07-11T12:06:16Z</time>
      </trkpt>
      <trkpt lat="44.789452" lon="6.522402">
        <ele>1311.3</ele>
        <time>2020-07-11T12:06:24Z</time>
      </trkpt>
      <trkpt lat="44.789383" lon="6.522467">
        <ele>1310.8</ele>
        <time>2020-07-11T12:06:31Z</time>
      </trkpt>
      <trkpt lat="44.789312" lon="6.522538">
        <ele>1310.1</ele>
        <time>2020-07-11T12:06:39Z</time>
      </trkpt>
      <trkpt lat="44.789240" lon="6.522612">
        <ele>1310.1</ele>
        <time>2020-07-11T12:06:47Z</time>
      </trkpt>
      <trkpt lat="44.789165" lon="6.522662">
        <ele>1309.8</ele>
        <time>2020-07-11T12:06:54Z</time>
      </trkpt>
      <trkpt lat="44.789080" lon="6.522637">
        <ele>1310.9</ele>
        <time>2020-07-11T12:07:03Z</time>
      </trkpt>
      <trkpt lat="44.789085" lon="6.522517">
        <ele>1313.8</ele>
        <time>2020-07-11T12:07:12Z</time>
      </trkpt>
      <trkpt lat="44.789138" lon="6.522415">
        <ele>1317.7</ele>
        <time>2020-07-11T12:07:21Z</time>
      </trkpt>
      <trkpt lat="44.789192" lon="6.522323">
        <ele>1321.3</ele>
        <time>2020-07-11T12:07:31Z</time>
      </trkpt>
      <trkpt lat="44.789252" lon="6.522235">
        <ele>1325.2</ele>
        <time>2020-07-11T12:07:41Z</time>
      </trkpt>
      <trkpt lat="44.789295" lon="6.522128">
        <ele>1326.6</ele>
        <time>2020-07-11T12:07:48Z</time>
      </trkpt>
      <trkpt lat="44.789345" lon="6.522028">
        <ele>1327.0</ele>
        <time>2020-07-11T12:07:55Z</time>
      </trkpt>
      <trkpt lat="44.789403" lon="6.521947">
        <ele>1326.2</ele>
        <time>2020-07-11T12:08:02Z</time>
      </trkpt>
      <trkpt lat="44.789452" lon="6.521855">
        <ele>1325.1</ele>
        <time>2020-07-11T12:08:11Z</time>
      </trkpt>
      <trkpt lat="44.789483" lon="6.521760">
        <ele>1324.3</ele>
        <time>2020-07-11T12:08:17Z</time>
      </trkpt>
      <trkpt lat="44.789520" lon="6.521660">
        <ele>1323.6</ele>
        <time>2020-07-11T12:08:23Z</time>
      </trkpt>
      <trkpt lat="44.789582" lon="6.521580">
        <ele>1323.0</ele>
        <time>2020-07-11T12:08:32Z</time>
      </trkpt>
      <trkpt lat="44.789657" lon="6.521515">
        <ele>1319.6</ele>
        <time>2020-07-11T12:08:43Z</time>
      </trkpt>
      <trkpt lat="44.789725" lon="6.521437">
        <ele>1319.5</ele>
        <time>2020-07-11T12:08:54Z</time>
      </trkpt>
      <trkpt lat="44.789785" lon="6.521353">
        <ele>1319.1</ele>
        <time>2020-07-11T12:09:03Z</time>
      </trkpt>
      <trkpt lat="44.789845" lon="6.521262">
        <ele>1319.3</ele>
        <time>2020-07-11T12:09:11Z</time>
      </trkpt>
      <trkpt lat="44.789897" lon="6.521165">
        <ele>1320.3</ele>
        <time>2020-07-11T12:09:19Z</time>
      </trkpt>
      <trkpt lat="44.789960" lon="6.521087">
        <ele>1319.0</ele>
        <time>2020-07-11T12:09:27Z</time>
      </trkpt>
      <trkpt lat="44.790018" lon="6.520997">
        <ele>1318.6</ele>
        <time>2020-07-11T12:09:35Z</time>
      </trkpt>
      <trkpt lat="44.790065" lon="6.520907">
        <ele>1318.7</ele>
        <time>2020-07-11T12:09:42Z</time>
      </trkpt>
      <trkpt lat="44.790110" lon="6.520807">
        <ele>1318.4</ele>
        <time>2020-07-11T12:09:50Z</time>
      </trkpt>
      <trkpt lat="44.790150" lon="6.520702">
        <ele>1318.1</ele>
        <time>2020-07-11T12:09:58Z</time>
      </trkpt>
      <trkpt lat="44.790183" lon="6.520595">
        <ele>1318.3</ele>
        <time>2020-07-11T12:10:05Z</time>
      </trkpt>
      <trkpt lat="44.790215" lon="6.520480">
        <ele>1319.1</ele>
        <time>2020-07-11T12:10:13Z</time>
      </trkpt>
      <trkpt lat="44.790248" lon="6.520365">
        <ele>1319.5</ele>
        <time>2020-07-11T12:10:21Z</time>
      </trkpt>
      <trkpt lat="44.790278" lon="6.520253">
        <ele>1320.8</ele>
        <time>2020-07-11T12:10:28Z</time>
      </trkpt>
      <trkpt lat="44.790312" lon="6.520138">
        <ele>1324.2</ele>
        <time>2020-07-11T12:10:35Z</time>
      </trkpt>
      <trkpt lat="44.790348" lon="6.520027">
        <ele>1322.3</ele>
        <time>2020-07-11T12:10:43Z</time>
      </trkpt>
      <trkpt lat="44.790372" lon="6.519905">
        <ele>1322.4</ele>
        <time>2020-07-11T12:10:51Z</time>
      </trkpt>
      <trkpt lat="44.790397" lon="6.519793">
        <ele>1321.5</ele>
        <time>2020-07-11T12:10:58Z</time>
      </trkpt>
      <trkpt lat="44.790405" lon="6.519680">
        <ele>1321.0</ele>
        <time>2020-07-11T12:11:04Z</time>
      </trkpt>
      <trkpt lat="44.790430" lon="6.519560">
        <ele>1319.6</ele>
        <time>2020-07-11T12:11:13Z</time>
      </trkpt>
      <trkpt lat="44.790428" lon="6.519445">
        <ele>1319.5</ele>
        <time>2020-07-11T12:11:21Z</time>
      </trkpt>
      <trkpt lat="44.790403" lon="6.519310">
        <ele>1330.4</ele>
        <time>2020-07-11T12:11:34Z</time>
      </trkpt>
      <trkpt lat="44.790383" lon="6.519170">
        <ele>1330.3</ele>
        <time>2020-07-11T12:11:41Z</time>
      </trkpt>
      <trkpt lat="44.790451" lon="6.519036">
        <ele>1331.8</ele>
        <time>2020-07-11T12:11:49Z</time>
      </trkpt>
      <trkpt lat="44.790472" lon="6.518949">
        <ele>1332.0</ele>
        <time>2020-07-11T12:11:57Z</time>
      </trkpt>
      <trkpt lat="44.790523" lon="6.518889">
        <ele>1332.5</ele>
        <time>2020-07-11T12:12:04Z</time>
      </trkpt>
    </trkseg>
  </trk>
</gpx>
